PWSweather.com
Personal Weather Stations
Station Observations
SONYA
Sergiev PosadRU

Sergiev PosadRU

Lat: 56.28148651, Lon: 38.05462646

Elevation: 741

Station Type: Fine offset WH1091

High Low Average
Temperature 35.1°F1.7°C 32.4°F0.2°C 33.6°F0.9°C
Dew Point 31.6°F-0.2°C 25.5°F-3.6°C 29.4°F-1.4°C
Winds 15.9 mph 25.6 kmh 1.6 mph 2.6 kmh 6.0 mph S9.7 kmh S
Wind Gusts 21.3 mph34.3 kmh 3.1 mph5.0 kmh 10.0 mph16.1 kmh
Humidity 91% 62% 79%
Pressure 29.54 in1000.3 mb 29.36 in994.2 mb -
Precipitation 0.02 in0.5 mm - -
Hour Temp Dew Point Humidity Winds Wind Gusts Pressure Precip Precip Rate Daily Precip Total
12:00 AM 35.1°F1.7°C 31.5°F-0.3°C 82% 8.3 mph S13.4 kmh S 16.8 mph27.0 kmh 29.54 in1000.3 mb 0.00 in0.0 mm 0.00 in0.0 mm 0.02 in0.5 mm
12:05 AM 35.1°F1.7°C 31.5°F-0.3°C 82% 9.8 mph SW15.8 kmh SW 14.5 mph23.3 kmh 29.54 in1000.3 mb 0.00 in0.0 mm 0.00 in0.0 mm 0.02 in0.5 mm
12:10 AM 35.1°F1.7°C 31.5°F-0.3°C 82% 8.3 mph S13.4 kmh S 15.2 mph24.5 kmh 29.54 in1000.3 mb 0.00 in0.0 mm 0.00 in0.0 mm 0.02 in0.5 mm
12:14 AM 34.9°F1.6°C 31.3°F-0.4°C 82% 8.3 mph SW13.4 kmh SW 13.0 mph20.9 kmh 29.54 in1000.3 mb 0.00 in0.0 mm 0.00 in0.0 mm 0.02 in0.5 mm
12:15 AM 35.1°F1.7°C 31.5°F-0.3°C 82% 9.2 mph S14.8 kmh S 14.5 mph23.3 kmh 29.54 in1000.3 mb 0.00 in0.0 mm 0.00 in0.0 mm 0.02 in0.5 mm
12:19 AM 34.9°F1.6°C 31.3°F-0.4°C 82% 7.6 mph S12.2 kmh S 13.6 mph21.9 kmh 29.54 in1000.3 mb 0.00 in0.0 mm 0.00 in0.0 mm 0.02 in0.5 mm
12:20 AM 34.9°F1.6°C 31.3°F-0.4°C 82% 7.6 mph S12.2 kmh S 15.9 mph25.6 kmh 29.54 in1000.3 mb 0.00 in0.0 mm 0.00 in0.0 mm 0.02 in0.5 mm
12:25 AM 34.9°F1.6°C 31.3°F-0.4°C 82% 12.1 mph S19.5 kmh S 17.4 mph28.0 kmh 29.54 in1000.3 mb 0.00 in0.0 mm 0.00 in0.0 mm 0.02 in0.5 mm
12:30 AM 34.9°F1.6°C 31.3°F-0.4°C 82% 7.6 mph SW12.2 kmh SW 9.2 mph14.8 kmh 29.54 in1000.3 mb 0.00 in0.0 mm 0.00 in0.0 mm 0.02 in0.5 mm
12:34 AM 34.9°F1.6°C 31.3°F-0.4°C 82% 9.2 mph SW14.8 kmh SW 12.1 mph19.5 kmh 29.54 in1000.3 mb 0.00 in0.0 mm 0.00 in0.0 mm 0.02 in0.5 mm
12:35 AM 34.9°F1.6°C 31.3°F-0.4°C 82% 9.2 mph SW14.8 kmh SW 13.0 mph20.9 kmh 29.53 in1000.0 mb 0.00 in0.0 mm 0.00 in0.0 mm 0.02 in0.5 mm
12:39 AM 34.9°F1.6°C 31.3°F-0.4°C 82% 9.8 mph SW15.8 kmh SW 13.0 mph20.9 kmh 29.53 in1000.0 mb 0.00 in0.0 mm 0.00 in0.0 mm 0.02 in0.5 mm
12:40 AM 34.9°F1.6°C 31.3°F-0.4°C 82% 9.2 mph SW14.8 kmh SW 16.8 mph27.0 kmh 29.53 in1000.0 mb 0.00 in0.0 mm 0.00 in0.0 mm 0.02 in0.5 mm
12:45 AM 34.9°F1.6°C 31.3°F-0.4°C 82% 9.8 mph S15.8 kmh S 17.4 mph28.0 kmh 29.54 in1000.3 mb 0.00 in0.0 mm 0.00 in0.0 mm 0.02 in0.5 mm
12:50 AM 34.9°F1.6°C 31.1°F-0.5°C 81% 8.3 mph S13.4 kmh S 13.6 mph21.9 kmh 29.53 in1000.0 mb 0.00 in0.0 mm 0.00 in0.0 mm 0.02 in0.5 mm
12:54 AM 34.9°F1.6°C 31.1°F-0.5°C 81% 9.8 mph SW15.8 kmh SW 13.6 mph21.9 kmh 29.54 in1000.3 mb 0.00 in0.0 mm 0.00 in0.0 mm 0.02 in0.5 mm
12:55 AM 34.9°F1.6°C 31.1°F-0.5°C 81% 8.3 mph SW13.4 kmh SW 13.6 mph21.9 kmh 29.53 in1000.0 mb 0.00 in0.0 mm 0.00 in0.0 mm 0.02 in0.5 mm
12:59 AM 34.9°F1.6°C 31.1°F-0.5°C 81% 6.9 mph SW11.1 kmh SW 12.1 mph19.5 kmh 29.54 in1000.3 mb 0.00 in0.0 mm 0.00 in0.0 mm 0.02 in0.5 mm
01:00 AM 34.9°F1.6°C 31.1°F-0.5°C 81% 6.0 mph S9.7 kmh S 9.2 mph14.8 kmh 29.54 in1000.3 mb 0.00 in0.0 mm 0.00 in0.0 mm 0.02 in0.5 mm
01:05 AM 34.9°F1.6°C 31.1°F-0.5°C 81% 9.2 mph WNW14.8 kmh WNW 21.3 mph34.3 kmh 29.54 in1000.3 mb 0.00 in0.0 mm 0.00 in0.0 mm 0.02 in0.5 mm
01:10 AM 34.9°F1.6°C 31.1°F-0.5°C 81% 10.7 mph SE17.2 kmh SE 15.9 mph25.6 kmh 29.54 in1000.3 mb 0.00 in0.0 mm 0.00 in0.0 mm 0.02 in0.5 mm
01:14 AM 34.9°F1.6°C 31.1°F-0.5°C 81% 12.1 mph SE19.5 kmh SE 19.7 mph31.7 kmh 29.54 in1000.3 mb 0.00 in0.0 mm 0.00 in0.0 mm 0.02 in0.5 mm
01:15 AM 34.9°F1.6°C 31.1°F-0.5°C 81% 9.2 mph W14.8 kmh W 18.3 mph29.5 kmh 29.54 in1000.3 mb 0.00 in0.0 mm 0.00 in0.0 mm 0.02 in0.5 mm
01:19 AM 34.9°F1.6°C 31.1°F-0.5°C 81% 6.9 mph SW11.1 kmh SW 10.7 mph17.2 kmh 29.54 in1000.3 mb 0.00 in0.0 mm 0.00 in0.0 mm 0.02 in0.5 mm
01:20 AM 34.9°F1.6°C 31.1°F-0.5°C 81% 7.6 mph SW12.2 kmh SW 11.4 mph18.3 kmh 29.54 in1000.3 mb 0.00 in0.0 mm 0.00 in0.0 mm 0.02 in0.5 mm
01:25 AM 34.9°F1.6°C 31.1°F-0.5°C 81% 11.4 mph SW18.3 kmh SW 21.3 mph34.3 kmh 29.54 in1000.3 mb 0.00 in0.0 mm 0.00 in0.0 mm 0.02 in0.5 mm
01:30 AM 34.9°F1.6°C 31.1°F-0.5°C 81% 9.2 mph SW14.8 kmh SW 16.8 mph27.0 kmh 29.54 in1000.3 mb 0.00 in0.0 mm 0.00 in0.0 mm 0.02 in0.5 mm
01:34 AM 34.9°F1.6°C 30.9°F-0.6°C 80% 9.2 mph SW14.8 kmh SW 15.9 mph25.6 kmh 29.54 in1000.3 mb 0.00 in0.0 mm 0.00 in0.0 mm 0.02 in0.5 mm
01:35 AM 34.9°F1.6°C 31.1°F-0.5°C 81% 9.8 mph S15.8 kmh S 13.0 mph20.9 kmh 29.54 in1000.3 mb 0.00 in0.0 mm 0.00 in0.0 mm 0.02 in0.5 mm
01:39 AM 34.9°F1.6°C 30.9°F-0.6°C 80% 6.0 mph SW9.7 kmh SW 11.4 mph18.3 kmh 29.54 in1000.3 mb 0.00 in0.0 mm 0.00 in0.0 mm 0.02 in0.5 mm
01:40 AM 34.9°F1.6°C 30.9°F-0.6°C 80% 11.4 mph SW18.3 kmh SW 15.2 mph24.5 kmh 29.54 in1000.3 mb 0.00 in0.0 mm 0.00 in0.0 mm 0.02 in0.5 mm
01:45 AM 34.9°F1.6°C 30.9°F-0.6°C 80% 5.4 mph SW8.7 kmh SW 7.6 mph12.2 kmh 29.54 in1000.3 mb 0.00 in0.0 mm 0.00 in0.0 mm 0.02 in0.5 mm
01:50 AM 34.9°F1.6°C 30.9°F-0.6°C 80% 5.4 mph S8.7 kmh S 11.4 mph18.3 kmh 29.54 in1000.3 mb 0.00 in0.0 mm 0.00 in0.0 mm 0.02 in0.5 mm
01:54 AM 34.9°F1.6°C 30.9°F-0.6°C 80% 6.0 mph SW9.7 kmh SW 8.3 mph13.4 kmh 29.53 in1000.0 mb 0.00 in0.0 mm 0.00 in0.0 mm 0.02 in0.5 mm
01:55 AM 34.9°F1.6°C 30.9°F-0.6°C 80% 5.4 mph S8.7 kmh S 6.9 mph11.1 kmh 29.53 in1000.0 mb 0.00 in0.0 mm 0.00 in0.0 mm 0.02 in0.5 mm
01:59 AM 34.9°F1.6°C 30.9°F-0.6°C 80% 4.5 mph SW7.2 kmh SW 6.9 mph11.1 kmh 29.53 in1000.0 mb 0.00 in0.0 mm 0.00 in0.0 mm 0.02 in0.5 mm
02:00 AM 34.9°F1.6°C 30.9°F-0.6°C 80% 6.9 mph SE11.1 kmh SE 11.4 mph18.3 kmh 29.53 in1000.0 mb 0.00 in0.0 mm 0.00 in0.0 mm 0.02 in0.5 mm
02:05 AM 34.9°F1.6°C 30.9°F-0.6°C 80% 10.7 mph SW17.2 kmh SW 17.4 mph28.0 kmh 29.52 in999.7 mb 0.00 in0.0 mm 0.00 in0.0 mm 0.02 in0.5 mm
02:10 AM 34.9°F1.6°C 30.9°F-0.6°C 80% 6.9 mph S11.1 kmh S 11.4 mph18.3 kmh 29.53 in1000.0 mb 0.00 in0.0 mm 0.00 in0.0 mm 0.02 in0.5 mm
02:14 AM 34.7°F1.5°C 30.7°F-0.7°C 80% 5.4 mph SE8.7 kmh SE 9.2 mph14.8 kmh 29.53 in1000.0 mb 0.00 in0.0 mm 0.00 in0.0 mm 0.02 in0.5 mm
02:15 AM 34.7°F1.5°C 30.7°F-0.7°C 80% 6.0 mph S9.7 kmh S 9.8 mph15.8 kmh 29.53 in1000.0 mb 0.00 in0.0 mm 0.00 in0.0 mm 0.02 in0.5 mm
02:19 AM 34.7°F1.5°C 30.7°F-0.7°C 80% 11.4 mph SW18.3 kmh SW 16.8 mph27.0 kmh 29.53 in1000.0 mb 0.00 in0.0 mm 0.00 in0.0 mm 0.02 in0.5 mm
02:20 AM 34.7°F1.5°C 30.7°F-0.7°C 80% 9.2 mph SW14.8 kmh SW 12.1 mph19.5 kmh 29.53 in1000.0 mb 0.00 in0.0 mm 0.00 in0.0 mm 0.02 in0.5 mm
02:25 AM 34.9°F1.6°C 30.9°F-0.6°C 80% 7.6 mph SW12.2 kmh SW 13.0 mph20.9 kmh 29.53 in1000.0 mb 0.00 in0.0 mm 0.00 in0.0 mm 0.02 in0.5 mm
02:30 AM 34.7°F1.5°C 30.7°F-0.7°C 80% 6.0 mph SW9.7 kmh SW 10.7 mph17.2 kmh 29.53 in1000.0 mb 0.00 in0.0 mm 0.00 in0.0 mm 0.02 in0.5 mm
02:34 AM 34.7°F1.5°C 30.7°F-0.7°C 80% 5.4 mph S8.7 kmh S 9.2 mph14.8 kmh 29.53 in1000.0 mb 0.00 in0.0 mm 0.00 in0.0 mm 0.02 in0.5 mm
02:35 AM 34.7°F1.5°C 30.7°F-0.7°C 80% 8.3 mph S13.4 kmh S 12.1 mph19.5 kmh 29.53 in1000.0 mb 0.00 in0.0 mm 0.00 in0.0 mm 0.02 in0.5 mm
02:39 AM 34.7°F1.5°C 30.7°F-0.7°C 80% 6.0 mph S9.7 kmh S 10.7 mph17.2 kmh 29.53 in1000.0 mb 0.00 in0.0 mm 0.00 in0.0 mm 0.02 in0.5 mm
02:40 AM 34.7°F1.5°C 30.7°F-0.7°C 80% 10.7 mph WSW17.2 kmh WSW 15.2 mph24.5 kmh 29.53 in1000.0 mb 0.00 in0.0 mm 0.00 in0.0 mm 0.02 in0.5 mm
02:45 AM 34.7°F1.5°C 30.7°F-0.7°C 80% 4.5 mph SW7.2 kmh SW 7.6 mph12.2 kmh 29.52 in999.7 mb 0.00 in0.0 mm 0.00 in0.0 mm 0.02 in0.5 mm
02:50 AM 34.7°F1.5°C 30.7°F-0.7°C 80% 15.9 mph S25.6 kmh S 19.0 mph30.6 kmh 29.53 in1000.0 mb 0.00 in0.0 mm 0.00 in0.0 mm 0.02 in0.5 mm
02:54 AM 34.7°F1.5°C 30.7°F-0.7°C 80% 6.9 mph SW11.1 kmh SW 9.8 mph15.8 kmh 29.53 in1000.0 mb 0.00 in0.0 mm 0.00 in0.0 mm 0.02 in0.5 mm
02:55 AM 34.7°F1.5°C 30.7°F-0.7°C 80% 9.2 mph NW14.8 kmh NW 12.1 mph19.5 kmh 29.54 in1000.3 mb 0.00 in0.0 mm 0.00 in0.0 mm 0.02 in0.5 mm
02:59 AM 34.7°F1.5°C 30.7°F-0.7°C 80% 3.8 mph SW6.1 kmh SW 6.9 mph11.1 kmh 29.53 in1000.0 mb 0.00 in0.0 mm 0.00 in0.0 mm 0.02 in0.5 mm
03:00 AM 34.7°F1.5°C 30.7°F-0.7°C 80% 7.6 mph S12.2 kmh S 11.4 mph18.3 kmh 29.53 in1000.0 mb 0.00 in0.0 mm 0.00 in0.0 mm 0.02 in0.5 mm
03:05 AM 34.7°F1.5°C 30.7°F-0.7°C 80% 12.1 mph SW19.5 kmh SW 14.5 mph23.3 kmh 29.54 in1000.3 mb 0.00 in0.0 mm 0.00 in0.0 mm 0.02 in0.5 mm
03:10 AM 34.7°F1.5°C 30.7°F-0.7°C 80% 9.2 mph SW14.8 kmh SW 12.1 mph19.5 kmh 29.53 in1000.0 mb 0.00 in0.0 mm 0.00 in0.0 mm 0.02 in0.5 mm
03:14 AM 34.7°F1.5°C 30.7°F-0.7°C 80% 7.6 mph SW12.2 kmh SW 10.7 mph17.2 kmh 29.53 in1000.0 mb 0.00 in0.0 mm 0.00 in0.0 mm 0.02 in0.5 mm
03:15 AM 34.7°F1.5°C 30.7°F-0.7°C 80% 11.4 mph SW18.3 kmh SW 18.3 mph29.5 kmh 29.54 in1000.3 mb 0.00 in0.0 mm 0.00 in0.0 mm 0.02 in0.5 mm
03:19 AM 34.7°F1.5°C 30.7°F-0.7°C 80% 13.0 mph N20.9 kmh N 16.8 mph27.0 kmh 29.53 in1000.0 mb 0.00 in0.0 mm 0.00 in0.0 mm 0.02 in0.5 mm
03:20 AM 34.7°F1.5°C 30.7°F-0.7°C 80% 7.6 mph SW12.2 kmh SW 13.0 mph20.9 kmh 29.53 in1000.0 mb 0.00 in0.0 mm 0.00 in0.0 mm 0.02 in0.5 mm
03:25 AM 34.5°F1.4°C 30.6°F-0.8°C 80% 3.8 mph SW6.1 kmh SW 5.4 mph8.7 kmh 29.54 in1000.3 mb 0.00 in0.0 mm 0.00 in0.0 mm 0.02 in0.5 mm
03:30 AM 34.3°F1.3°C 30.4°F-0.9°C 80% 9.2 mph SW14.8 kmh SW 11.4 mph18.3 kmh 29.54 in1000.3 mb 0.00 in0.0 mm 0.00 in0.0 mm 0.02 in0.5 mm
03:34 AM 34.2°F1.2°C 30.4°F-0.9°C 81% 6.9 mph S11.1 kmh S 11.4 mph18.3 kmh 29.54 in1000.3 mb 0.00 in0.0 mm 0.00 in0.0 mm 0.02 in0.5 mm
03:35 AM 34.3°F1.3°C 30.4°F-0.9°C 80% 9.2 mph S14.8 kmh S 13.6 mph21.9 kmh 29.53 in1000.0 mb 0.00 in0.0 mm 0.00 in0.0 mm 0.02 in0.5 mm
03:39 AM 34.2°F1.2°C 30.4°F-0.9°C 81% 9.8 mph SE15.8 kmh SE 17.4 mph28.0 kmh 29.54 in1000.3 mb 0.00 in0.0 mm 0.00 in0.0 mm 0.02 in0.5 mm
03:40 AM 34.0°F1.1°C 30.2°F-1.0°C 81% 3.1 mph S5.0 kmh S 4.5 mph7.2 kmh 29.54 in1000.3 mb 0.00 in0.0 mm 0.00 in0.0 mm 0.02 in0.5 mm
03:45 AM 34.0°F1.1°C 30.5°F-0.8°C 82% 6.9 mph S11.1 kmh S 9.8 mph15.8 kmh 29.53 in1000.0 mb 0.00 in0.0 mm 0.00 in0.0 mm 0.02 in0.5 mm
03:50 AM 34.0°F1.1°C 30.5°F-0.8°C 82% 5.4 mph S8.7 kmh S 9.2 mph14.8 kmh 29.54 in1000.3 mb 0.00 in0.0 mm 0.00 in0.0 mm 0.02 in0.5 mm
03:54 AM 33.8°F1.0°C 30.3°F-0.9°C 82% 6.0 mph S9.7 kmh S 11.4 mph18.3 kmh 29.53 in1000.0 mb 0.00 in0.0 mm 0.00 in0.0 mm 0.02 in0.5 mm
03:55 AM 34.0°F1.1°C 30.5°F-0.8°C 82% 7.6 mph W12.2 kmh W 10.7 mph17.2 kmh 29.53 in1000.0 mb 0.00 in0.0 mm 0.00 in0.0 mm 0.02 in0.5 mm
03:59 AM 33.8°F1.0°C 30.3°F-0.9°C 82% 4.5 mph SW7.2 kmh SW 8.3 mph13.4 kmh 29.53 in1000.0 mb 0.00 in0.0 mm 0.00 in0.0 mm 0.02 in0.5 mm
04:00 AM 33.6°F0.9°C 30.3°F-0.9°C 83% 2.2 mph SW3.5 kmh SW 3.8 mph6.1 kmh 29.53 in1000.0 mb 0.00 in0.0 mm 0.00 in0.0 mm 0.02 in0.5 mm
04:05 AM 33.4°F0.8°C 30.4°F-0.9°C 84% 10.7 mph SW17.2 kmh SW 13.6 mph21.9 kmh 29.53 in1000.0 mb 0.00 in0.0 mm 0.00 in0.0 mm 0.02 in0.5 mm
04:10 AM 33.4°F0.8°C 30.4°F-0.9°C 84% 8.3 mph SW13.4 kmh SW 10.7 mph17.2 kmh 29.53 in1000.0 mb 0.00 in0.0 mm 0.00 in0.0 mm 0.02 in0.5 mm
04:14 AM 33.4°F0.8°C 30.6°F-0.8°C 85% 5.4 mph SW8.7 kmh SW 7.6 mph12.2 kmh 29.53 in1000.0 mb 0.00 in0.0 mm 0.00 in0.0 mm 0.02 in0.5 mm
04:15 AM 33.4°F0.8°C 30.4°F-0.9°C 84% 6.0 mph SW9.7 kmh SW 9.8 mph15.8 kmh 29.53 in1000.0 mb 0.00 in0.0 mm 0.00 in0.0 mm 0.02 in0.5 mm
04:19 AM 33.4°F0.8°C 30.6°F-0.8°C 85% 3.1 mph SW5.0 kmh SW 6.0 mph9.7 kmh 29.53 in1000.0 mb 0.00 in0.0 mm 0.00 in0.0 mm 0.02 in0.5 mm
04:20 AM 33.4°F0.8°C 30.6°F-0.8°C 85% 3.1 mph SSW5.0 kmh SSW 4.5 mph7.2 kmh 29.53 in1000.0 mb 0.00 in0.0 mm 0.00 in0.0 mm 0.02 in0.5 mm
04:25 AM 33.4°F0.8°C 30.6°F-0.8°C 85% 5.4 mph S8.7 kmh S 10.7 mph17.2 kmh 29.53 in1000.0 mb 0.00 in0.0 mm 0.00 in0.0 mm 0.02 in0.5 mm
04:30 AM 33.6°F0.9°C 30.9°F-0.6°C 86% 4.5 mph SW7.2 kmh SW 6.9 mph11.1 kmh 29.53 in1000.0 mb 0.00 in0.0 mm 0.00 in0.0 mm 0.02 in0.5 mm
04:34 AM 33.6°F0.9°C 30.9°F-0.6°C 86% 5.4 mph SW8.7 kmh SW 7.6 mph12.2 kmh 29.53 in1000.0 mb 0.00 in0.0 mm 0.00 in0.0 mm 0.02 in0.5 mm
04:35 AM 33.6°F0.9°C 30.9°F-0.6°C 86% 6.0 mph S9.7 kmh S 10.7 mph17.2 kmh 29.53 in1000.0 mb 0.00 in0.0 mm 0.00 in0.0 mm 0.02 in0.5 mm
04:39 AM 33.6°F0.9°C 30.9°F-0.6°C 86% 5.4 mph S8.7 kmh S 7.6 mph12.2 kmh 29.53 in1000.0 mb 0.00 in0.0 mm 0.00 in0.0 mm 0.02 in0.5 mm
04:40 AM 33.8°F1.0°C 30.9°F-0.6°C 85% 4.5 mph SW7.2 kmh SW 7.6 mph12.2 kmh 29.53 in1000.0 mb 0.00 in0.0 mm 0.00 in0.0 mm 0.02 in0.5 mm
04:45 AM 33.6°F0.9°C 30.9°F-0.6°C 86% 7.6 mph S12.2 kmh S 12.1 mph19.5 kmh 29.53 in1000.0 mb 0.00 in0.0 mm 0.00 in0.0 mm 0.02 in0.5 mm
04:50 AM 33.6°F0.9°C 30.9°F-0.6°C 86% 3.8 mph S6.1 kmh S 7.6 mph12.2 kmh 29.53 in1000.0 mb 0.00 in0.0 mm 0.00 in0.0 mm 0.02 in0.5 mm
04:54 AM 33.4°F0.8°C 30.8°F-0.7°C 86% 3.1 mph SW5.0 kmh SW 6.0 mph9.7 kmh 29.53 in1000.0 mb 0.00 in0.0 mm 0.00 in0.0 mm 0.02 in0.5 mm
04:55 AM 33.4°F0.8°C 30.8°F-0.7°C 86% 3.8 mph SW6.1 kmh SW 7.6 mph12.2 kmh 29.53 in1000.0 mb 0.00 in0.0 mm 0.00 in0.0 mm 0.02 in0.5 mm
04:59 AM 33.4°F0.8°C 30.8°F-0.7°C 86% 6.0 mph WSW9.7 kmh WSW 9.2 mph14.8 kmh 29.53 in1000.0 mb 0.00 in0.0 mm 0.00 in0.0 mm 0.02 in0.5 mm
05:00 AM 33.4°F0.8°C 30.8°F-0.7°C 86% 3.1 mph S5.0 kmh S 4.5 mph7.2 kmh 29.52 in999.7 mb 0.00 in0.0 mm 0.00 in0.0 mm 0.02 in0.5 mm
05:05 AM 33.3°F0.7°C 30.6°F-0.8°C 86% 3.1 mph WNW5.0 kmh WNW 5.4 mph8.7 kmh 29.54 in1000.3 mb 0.00 in0.0 mm 0.00 in0.0 mm 0.02 in0.5 mm
05:10 AM 33.1°F0.6°C 30.4°F-0.9°C 86% 4.5 mph SE7.2 kmh SE 6.0 mph9.7 kmh 29.53 in1000.0 mb 0.00 in0.0 mm 0.00 in0.0 mm 0.02 in0.5 mm
05:14 AM 33.1°F0.6°C 30.4°F-0.9°C 86% 7.6 mph SW12.2 kmh SW 11.4 mph18.3 kmh 29.53 in1000.0 mb 0.00 in0.0 mm 0.00 in0.0 mm 0.02 in0.5 mm
05:15 AM 33.1°F0.6°C 30.4°F-0.9°C 86% 4.5 mph S7.2 kmh S 6.9 mph11.1 kmh 29.53 in1000.0 mb 0.00 in0.0 mm 0.00 in0.0 mm 0.02 in0.5 mm
05:19 AM 33.1°F0.6°C 30.4°F-0.9°C 86% 3.8 mph SE6.1 kmh SE 6.0 mph9.7 kmh 29.53 in1000.0 mb 0.00 in0.0 mm 0.00 in0.0 mm 0.02 in0.5 mm
05:20 AM 33.3°F0.7°C 30.8°F-0.7°C 87% 6.0 mph S9.7 kmh S 7.6 mph12.2 kmh 29.53 in1000.0 mb 0.00 in0.0 mm 0.00 in0.0 mm 0.02 in0.5 mm
05:25 AM 33.3°F0.7°C 30.8°F-0.7°C 87% 3.8 mph SW6.1 kmh SW 6.0 mph9.7 kmh 29.53 in1000.0 mb 0.00 in0.0 mm 0.00 in0.0 mm 0.02 in0.5 mm
05:30 AM 33.1°F0.6°C 30.6°F-0.8°C 87% 3.8 mph NW6.1 kmh NW 6.9 mph11.1 kmh 29.54 in1000.3 mb 0.00 in0.0 mm 0.00 in0.0 mm 0.02 in0.5 mm
05:34 AM 33.1°F0.6°C 30.6°F-0.8°C 87% 3.8 mph S6.1 kmh S 6.0 mph9.7 kmh 29.53 in1000.0 mb 0.00 in0.0 mm 0.00 in0.0 mm 0.02 in0.5 mm
05:35 AM 33.1°F0.6°C 30.6°F-0.8°C 87% 3.1 mph SW5.0 kmh SW 3.8 mph6.1 kmh 29.53 in1000.0 mb 0.00 in0.0 mm 0.00 in0.0 mm 0.02 in0.5 mm
05:39 AM 33.1°F0.6°C 30.6°F-0.8°C 87% 3.1 mph S5.0 kmh S 4.5 mph7.2 kmh 29.53 in1000.0 mb 0.00 in0.0 mm 0.00 in0.0 mm 0.02 in0.5 mm
05:40 AM 32.9°F0.5°C 30.4°F-0.9°C 87% 2.2 mph SE3.5 kmh SE 4.5 mph7.2 kmh 29.54 in1000.3 mb 0.00 in0.0 mm 0.00 in0.0 mm 0.02 in0.5 mm
05:45 AM 32.9°F0.5°C 30.4°F-0.9°C 87% 3.1 mph S5.0 kmh S 4.5 mph7.2 kmh 29.54 in1000.3 mb 0.00 in0.0 mm 0.00 in0.0 mm 0.02 in0.5 mm
05:50 AM 32.9°F0.5°C 30.6°F-0.8°C 88% 3.1 mph SW5.0 kmh SW 4.5 mph7.2 kmh 29.54 in1000.3 mb 0.00 in0.0 mm 0.00 in0.0 mm 0.02 in0.5 mm
05:54 AM 32.9°F0.5°C 30.6°F-0.8°C 88% 1.6 mph SW2.6 kmh SW 3.1 mph5.0 kmh 29.53 in1000.0 mb 0.00 in0.0 mm 0.00 in0.0 mm 0.02 in0.5 mm
05:55 AM 32.9°F0.5°C 30.6°F-0.8°C 88% 3.1 mph S5.0 kmh S 4.5 mph7.2 kmh 29.53 in1000.0 mb 0.00 in0.0 mm 0.00 in0.0 mm 0.02 in0.5 mm
05:59 AM 32.9°F0.5°C 30.6°F-0.8°C 88% 1.6 mph S2.6 kmh S 3.1 mph5.0 kmh 29.53 in1000.0 mb 0.00 in0.0 mm 0.00 in0.0 mm 0.02 in0.5 mm
06:00 AM 32.9°F0.5°C 30.6°F-0.8°C 88% 3.8 mph SW6.1 kmh SW 5.4 mph8.7 kmh 29.54 in1000.3 mb 0.00 in0.0 mm 0.00 in0.0 mm 0.02 in0.5 mm
06:05 AM 32.9°F0.5°C 30.6°F-0.8°C 88% 2.2 mph SW3.5 kmh SW 3.8 mph6.1 kmh 29.53 in1000.0 mb 0.00 in0.0 mm 0.00 in0.0 mm 0.02 in0.5 mm
06:10 AM 32.9°F0.5°C 30.6°F-0.8°C 88% 3.8 mph SW6.1 kmh SW 6.0 mph9.7 kmh 29.54 in1000.3 mb 0.00 in0.0 mm 0.00 in0.0 mm 0.02 in0.5 mm
06:14 AM 32.9°F0.5°C 30.6°F-0.8°C 88% 6.0 mph SW9.7 kmh SW 9.2 mph14.8 kmh 29.54 in1000.3 mb 0.00 in0.0 mm 0.00 in0.0 mm 0.02 in0.5 mm
06:15 AM 32.9°F0.5°C 30.6°F-0.8°C 88% 5.4 mph S8.7 kmh S 8.3 mph13.4 kmh 29.54 in1000.3 mb 0.00 in0.0 mm 0.00 in0.0 mm 0.02 in0.5 mm
06:19 AM 32.9°F0.5°C 30.6°F-0.8°C 88% 3.8 mph S6.1 kmh S 6.0 mph9.7 kmh 29.54 in1000.3 mb 0.00 in0.0 mm 0.00 in0.0 mm 0.02 in0.5 mm
06:20 AM 32.9°F0.5°C 30.8°F-0.7°C 89% 3.1 mph SW5.0 kmh SW 4.5 mph7.2 kmh 29.54 in1000.3 mb 0.00 in0.0 mm 0.00 in0.0 mm 0.02 in0.5 mm
06:25 AM 32.9°F0.5°C 30.8°F-0.7°C 89% 4.5 mph S7.2 kmh S 6.9 mph11.1 kmh 29.53 in1000.0 mb 0.00 in0.0 mm 0.00 in0.0 mm 0.02 in0.5 mm
06:30 AM 33.1°F0.6°C 31.0°F-0.6°C 89% 3.1 mph S5.0 kmh S 4.5 mph7.2 kmh 29.54 in1000.3 mb 0.00 in0.0 mm 0.00 in0.0 mm 0.02 in0.5 mm
06:34 AM 32.9°F0.5°C 30.8°F-0.7°C 89% 3.8 mph SW6.1 kmh SW 7.6 mph12.2 kmh 29.54 in1000.3 mb 0.00 in0.0 mm 0.00 in0.0 mm 0.02 in0.5 mm
06:35 AM 32.9°F0.5°C 30.8°F-0.7°C 89% 3.1 mph SE5.0 kmh SE 5.4 mph8.7 kmh 29.54 in1000.3 mb 0.00 in0.0 mm 0.00 in0.0 mm 0.02 in0.5 mm
06:39 AM 32.9°F0.5°C 30.8°F-0.7°C 89% 3.8 mph SE6.1 kmh SE 6.9 mph11.1 kmh 29.53 in1000.0 mb 0.00 in0.0 mm 0.00 in0.0 mm 0.02 in0.5 mm
06:40 AM 32.9°F0.5°C 30.8°F-0.7°C 89% 3.8 mph WSW6.1 kmh WSW 4.5 mph7.2 kmh 29.53 in1000.0 mb 0.00 in0.0 mm 0.00 in0.0 mm 0.02 in0.5 mm
06:45 AM 32.9°F0.5°C 30.8°F-0.7°C 89% 2.2 mph SE3.5 kmh SE 3.1 mph5.0 kmh 29.52 in999.7 mb 0.00 in0.0 mm 0.00 in0.0 mm 0.02 in0.5 mm
06:50 AM 32.9°F0.5°C 31.0°F-0.6°C 90% 1.6 mph SE2.6 kmh SE 3.8 mph6.1 kmh 29.51 in999.3 mb 0.00 in0.0 mm 0.00 in0.0 mm 0.02 in0.5 mm
06:54 AM 32.9°F0.5°C 31.0°F-0.6°C 90% 3.1 mph SW5.0 kmh SW 4.5 mph7.2 kmh 29.52 in999.7 mb 0.00 in0.0 mm 0.00 in0.0 mm 0.01 in0.3 mm
06:55 AM 32.9°F0.5°C 31.0°F-0.6°C 90% 3.1 mph S5.0 kmh S 6.9 mph11.1 kmh 29.52 in999.7 mb 0.00 in0.0 mm 0.00 in0.0 mm 0.02 in0.5 mm
06:59 AM 32.9°F0.5°C 31.0°F-0.6°C 90% 1.6 mph SW2.6 kmh SW 3.1 mph5.0 kmh 29.50 in999.0 mb 0.00 in0.0 mm 0.00 in0.0 mm 0.01 in0.3 mm
07:00 AM 32.9°F0.5°C 31.0°F-0.6°C 90% 5.4 mph NE8.7 kmh NE 7.6 mph12.2 kmh 29.52 in999.7 mb 0.00 in0.0 mm 0.00 in0.0 mm 0.01 in0.3 mm
07:05 AM 32.9°F0.5°C 31.0°F-0.6°C 90% 1.6 mph S2.6 kmh S 3.1 mph5.0 kmh 29.52 in999.7 mb 0.00 in0.0 mm 0.00 in0.0 mm 0.01 in0.3 mm
07:10 AM 32.9°F0.5°C 31.0°F-0.6°C 90% 1.6 mph SE2.6 kmh SE 3.1 mph5.0 kmh 29.51 in999.3 mb 0.00 in0.0 mm 0.00 in0.0 mm 0.01 in0.3 mm
07:14 AM 32.7°F0.4°C 30.9°F-0.6°C 90% 3.1 mph SE5.0 kmh SE 3.8 mph6.1 kmh 29.51 in999.3 mb 0.00 in0.0 mm 0.00 in0.0 mm 0.01 in0.3 mm
07:15 AM 32.9°F0.5°C 31.0°F-0.6°C 90% 3.1 mph SE5.0 kmh SE 3.8 mph6.1 kmh 29.51 in999.3 mb 0.00 in0.0 mm 0.00 in0.0 mm 0.01 in0.3 mm
07:19 AM 32.7°F0.4°C 30.9°F-0.6°C 90% 1.6 mph S2.6 kmh S 4.5 mph7.2 kmh 29.50 in999.0 mb 0.00 in0.0 mm 0.00 in0.0 mm 0.01 in0.3 mm
07:20 AM 32.7°F0.4°C 30.9°F-0.6°C 90% 3.1 mph SW5.0 kmh SW 6.0 mph9.7 kmh 29.50 in999.0 mb 0.00 in0.0 mm 0.00 in0.0 mm 0.01 in0.3 mm
07:25 AM 32.7°F0.4°C 30.9°F-0.6°C 90% 3.8 mph SW6.1 kmh SW 6.0 mph9.7 kmh 29.51 in999.3 mb 0.00 in0.0 mm 0.00 in0.0 mm 0.01 in0.3 mm
07:30 AM 32.9°F0.5°C 31.0°F-0.6°C 90% 3.1 mph SE5.0 kmh SE 3.8 mph6.1 kmh 29.52 in999.7 mb 0.00 in0.0 mm 0.00 in0.0 mm 0.01 in0.3 mm
07:34 AM 32.9°F0.5°C 31.0°F-0.6°C 90% 3.1 mph S5.0 kmh S 6.0 mph9.7 kmh 29.52 in999.7 mb 0.00 in0.0 mm 0.00 in0.0 mm 0.01 in0.3 mm
07:35 AM 32.9°F0.5°C 31.0°F-0.6°C 90% 3.1 mph S5.0 kmh S 6.0 mph9.7 kmh 29.51 in999.3 mb 0.00 in0.0 mm 0.00 in0.0 mm 0.01 in0.3 mm
07:39 AM 32.9°F0.5°C 31.0°F-0.6°C 90% 3.1 mph SE5.0 kmh SE 6.0 mph9.7 kmh 29.52 in999.7 mb 0.00 in0.0 mm 0.00 in0.0 mm 0.01 in0.3 mm
07:40 AM 32.9°F0.5°C 31.0°F-0.6°C 90% 2.2 mph SW3.5 kmh SW 3.1 mph5.0 kmh 29.53 in1000.0 mb 0.00 in0.0 mm 0.00 in0.0 mm 0.01 in0.3 mm
07:45 AM 32.9°F0.5°C 31.0°F-0.6°C 90% 4.5 mph SW7.2 kmh SW 6.9 mph11.1 kmh 29.54 in1000.3 mb 0.00 in0.0 mm 0.00 in0.0 mm 0.01 in0.3 mm
07:50 AM 32.9°F0.5°C 31.2°F-0.4°C 91% 3.8 mph S6.1 kmh S 6.0 mph9.7 kmh 29.52 in999.7 mb 0.00 in0.0 mm 0.00 in0.0 mm 0.01 in0.3 mm
07:54 AM 32.9°F0.5°C 31.2°F-0.4°C 91% 4.5 mph SE7.2 kmh SE 7.6 mph12.2 kmh 29.51 in999.3 mb 0.00 in0.0 mm 0.00 in0.0 mm 0.01 in0.3 mm
07:55 AM 32.9°F0.5°C 31.2°F-0.4°C 91% 1.6 mph SW2.6 kmh SW 3.1 mph5.0 kmh 29.51 in999.3 mb 0.00 in0.0 mm 0.00 in0.0 mm 0.01 in0.3 mm
07:59 AM 32.9°F0.5°C 31.2°F-0.4°C 91% 3.8 mph SW6.1 kmh SW 5.4 mph8.7 kmh 29.50 in999.0 mb 0.00 in0.0 mm 0.00 in0.0 mm 0.01 in0.3 mm
08:00 AM 32.9°F0.5°C 31.2°F-0.4°C 91% 6.0 mph SW9.7 kmh SW 9.2 mph14.8 kmh 29.50 in999.0 mb 0.00 in0.0 mm 0.00 in0.0 mm 0.01 in0.3 mm
08:05 AM 32.9°F0.5°C 31.2°F-0.4°C 91% 3.1 mph SE5.0 kmh SE 5.4 mph8.7 kmh 29.50 in999.0 mb 0.00 in0.0 mm 0.00 in0.0 mm 0.01 in0.3 mm
08:10 AM 32.7°F0.4°C 31.1°F-0.5°C 91% 4.5 mph S7.2 kmh S 5.4 mph8.7 kmh 29.48 in998.3 mb 0.00 in0.0 mm 0.00 in0.0 mm 0.01 in0.3 mm
08:14 AM 32.7°F0.4°C 31.1°F-0.5°C 91% 3.1 mph NE5.0 kmh NE 6.0 mph9.7 kmh 29.47 in998.0 mb 0.00 in0.0 mm 0.00 in0.0 mm 0.01 in0.3 mm
08:15 AM 32.7°F0.4°C 31.1°F-0.5°C 91% 2.2 mph SW3.5 kmh SW 3.1 mph5.0 kmh 29.48 in998.3 mb 0.00 in0.0 mm 0.00 in0.0 mm 0.01 in0.3 mm
08:19 AM 32.7°F0.4°C 31.1°F-0.5°C 91% 3.8 mph E6.1 kmh E 6.0 mph9.7 kmh 29.47 in998.0 mb 0.00 in0.0 mm 0.00 in0.0 mm 0.01 in0.3 mm
08:20 AM 32.7°F0.4°C 31.1°F-0.5°C 91% 3.1 mph SE5.0 kmh SE 6.0 mph9.7 kmh 29.46 in997.6 mb 0.00 in0.0 mm 0.00 in0.0 mm 0.01 in0.3 mm
08:25 AM 32.7°F0.4°C 31.1°F-0.5°C 91% 3.8 mph SW6.1 kmh SW 6.0 mph9.7 kmh 29.46 in997.6 mb 0.00 in0.0 mm 0.00 in0.0 mm 0.01 in0.3 mm
08:30 AM 32.7°F0.4°C 31.1°F-0.5°C 91% 4.5 mph S7.2 kmh S 7.6 mph12.2 kmh 29.47 in998.0 mb 0.00 in0.0 mm 0.00 in0.0 mm 0.01 in0.3 mm
08:34 AM 32.9°F0.5°C 31.2°F-0.4°C 91% 3.1 mph S5.0 kmh S 5.4 mph8.7 kmh 29.47 in998.0 mb 0.00 in0.0 mm 0.00 in0.0 mm 0.01 in0.3 mm
08:35 AM 32.7°F0.4°C 31.1°F-0.5°C 91% 4.5 mph S7.2 kmh S 7.6 mph12.2 kmh 29.47 in998.0 mb 0.00 in0.0 mm 0.00 in0.0 mm 0.01 in0.3 mm
08:39 AM 32.9°F0.5°C 31.2°F-0.4°C 91% 5.4 mph NNW8.7 kmh NNW 9.2 mph14.8 kmh 29.47 in998.0 mb 0.00 in0.0 mm 0.00 in0.0 mm 0.01 in0.3 mm
08:40 AM 32.9°F0.5°C 31.2°F-0.4°C 91% 5.4 mph SW8.7 kmh SW 13.0 mph20.9 kmh 29.47 in998.0 mb 0.00 in0.0 mm 0.00 in0.0 mm 0.01 in0.3 mm
08:45 AM 32.9°F0.5°C 31.2°F-0.4°C 91% 3.8 mph S6.1 kmh S 6.9 mph11.1 kmh 29.48 in998.3 mb 0.00 in0.0 mm 0.00 in0.0 mm 0.01 in0.3 mm
08:50 AM 33.1°F0.6°C 31.4°F-0.3°C 91% 3.8 mph SW6.1 kmh SW 6.9 mph11.1 kmh 29.49 in998.6 mb 0.01 in0.3 mm 0.14 in3.6 mm 0.02 in0.5 mm
08:54 AM 33.1°F0.6°C 31.4°F-0.3°C 91% 11.4 mph S18.3 kmh S 15.2 mph24.5 kmh 29.49 in998.6 mb 0.01 in0.3 mm 0.00 in0.0 mm 0.01 in0.3 mm
08:55 AM 33.1°F0.6°C 31.4°F-0.3°C 91% 7.6 mph SW12.2 kmh SW 9.8 mph15.8 kmh 29.49 in998.6 mb 0.01 in0.3 mm 0.00 in0.0 mm 0.02 in0.5 mm
08:59 AM 33.1°F0.6°C 31.4°F-0.3°C 91% 3.8 mph SW6.1 kmh SW 7.6 mph12.2 kmh 29.49 in998.6 mb 0.01 in0.3 mm 0.00 in0.0 mm 0.01 in0.3 mm
09:00 AM 33.1°F0.6°C 31.4°F-0.3°C 91% 8.3 mph SW13.4 kmh SW 16.8 mph27.0 kmh 29.49 in998.6 mb 0.01 in0.3 mm 0.00 in0.0 mm 0.01 in0.3 mm
09:05 AM 33.3°F0.7°C 31.6°F-0.2°C 91% 6.0 mph SSW9.7 kmh SSW 11.4 mph18.3 kmh 29.50 in999.0 mb 0.01 in0.3 mm 0.00 in0.0 mm 0.01 in0.3 mm
09:10 AM 33.3°F0.7°C 31.6°F-0.2°C 91% 4.5 mph S7.2 kmh S 6.9 mph11.1 kmh 29.50 in999.0 mb 0.01 in0.3 mm 0.00 in0.0 mm 0.01 in0.3 mm
09:14 AM 33.3°F0.7°C 31.6°F-0.2°C 91% 6.0 mph S9.7 kmh S 12.1 mph19.5 kmh 29.49 in998.6 mb 0.01 in0.3 mm 0.00 in0.0 mm 0.01 in0.3 mm
09:15 AM 33.3°F0.7°C 31.6°F-0.2°C 91% 10.7 mph SW17.2 kmh SW 13.0 mph20.9 kmh 29.49 in998.6 mb 0.01 in0.3 mm 0.00 in0.0 mm 0.01 in0.3 mm
09:19 AM 33.3°F0.7°C 31.6°F-0.2°C 91% 4.5 mph S7.2 kmh S 6.9 mph11.1 kmh 29.49 in998.6 mb 0.01 in0.3 mm 0.00 in0.0 mm 0.01 in0.3 mm
09:20 AM 33.3°F0.7°C 31.6°F-0.2°C 91% 6.0 mph S9.7 kmh S 9.8 mph15.8 kmh 29.49 in998.6 mb 0.02 in0.5 mm 0.72 in18.3 mm 0.02 in0.5 mm
09:25 AM 33.3°F0.7°C 31.4°F-0.3°C 90% 11.4 mph SW18.3 kmh SW 16.8 mph27.0 kmh 29.49 in998.6 mb 0.02 in0.5 mm 0.00 in0.0 mm 0.02 in0.5 mm
09:30 AM 33.3°F0.7°C 31.4°F-0.3°C 90% 4.5 mph WSW7.2 kmh WSW 6.9 mph11.1 kmh 29.49 in998.6 mb 0.02 in0.5 mm 0.00 in0.0 mm 0.02 in0.5 mm
09:34 AM 33.3°F0.7°C 31.4°F-0.3°C 90% 9.2 mph SW14.8 kmh SW 14.5 mph23.3 kmh 29.50 in999.0 mb 0.02 in0.5 mm 0.00 in0.0 mm 0.02 in0.5 mm
09:35 AM 33.3°F0.7°C 31.4°F-0.3°C 90% 5.4 mph SE8.7 kmh SE 8.3 mph13.4 kmh 29.49 in998.6 mb 0.02 in0.5 mm 0.00 in0.0 mm 0.02 in0.5 mm
09:39 AM 33.3°F0.7°C 31.4°F-0.3°C 90% 7.6 mph S12.2 kmh S 11.4 mph18.3 kmh 29.49 in998.6 mb 0.02 in0.5 mm 0.00 in0.0 mm 0.02 in0.5 mm
09:40 AM 33.4°F0.8°C 31.6°F-0.2°C 90% 6.9 mph E11.1 kmh E 9.8 mph15.8 kmh 29.49 in998.6 mb 0.02 in0.5 mm 0.00 in0.0 mm 0.02 in0.5 mm
09:45 AM 33.4°F0.8°C 31.4°F-0.3°C 89% 10.7 mph S17.2 kmh S 13.0 mph20.9 kmh 29.49 in998.6 mb 0.02 in0.5 mm 0.00 in0.0 mm 0.02 in0.5 mm
09:50 AM 33.4°F0.8°C 31.2°F-0.4°C 88% 6.9 mph S11.1 kmh S 10.7 mph17.2 kmh 29.49 in998.6 mb 0.01 in0.3 mm 0.00 in0.0 mm 0.02 in0.5 mm
09:54 AM 33.4°F0.8°C 31.2°F-0.4°C 88% 5.4 mph S8.7 kmh S 9.8 mph15.8 kmh 29.49 in998.6 mb 0.01 in0.3 mm 0.00 in0.0 mm 0.02 in0.5 mm
09:55 AM 33.4°F0.8°C 31.2°F-0.4°C 88% 8.3 mph S13.4 kmh S 14.5 mph23.3 kmh 29.50 in999.0 mb 0.01 in0.3 mm 0.00 in0.0 mm 0.02 in0.5 mm
09:59 AM 33.4°F0.8°C 31.2°F-0.4°C 88% 6.0 mph S9.7 kmh S 9.8 mph15.8 kmh 29.49 in998.6 mb 0.01 in0.3 mm 0.00 in0.0 mm 0.02 in0.5 mm
10:00 AM 33.4°F0.8°C 31.2°F-0.4°C 88% 7.6 mph SW12.2 kmh SW 9.8 mph15.8 kmh 29.49 in998.6 mb 0.01 in0.3 mm 0.00 in0.0 mm 0.02 in0.5 mm
10:05 AM 33.4°F0.8°C 31.0°F-0.6°C 87% 9.2 mph SW14.8 kmh SW 13.6 mph21.9 kmh 29.49 in998.6 mb 0.01 in0.3 mm 0.00 in0.0 mm 0.02 in0.5 mm
10:10 AM 33.4°F0.8°C 31.0°F-0.6°C 87% 9.2 mph SW14.8 kmh SW 12.1 mph19.5 kmh 29.49 in998.6 mb 0.01 in0.3 mm 0.00 in0.0 mm 0.02 in0.5 mm
10:14 AM 33.4°F0.8°C 30.8°F-0.7°C 86% 4.5 mph SSW7.2 kmh SSW 7.6 mph12.2 kmh 29.49 in998.6 mb 0.01 in0.3 mm 0.00 in0.0 mm 0.02 in0.5 mm
10:15 AM 33.4°F0.8°C 31.0°F-0.6°C 87% 9.2 mph SW14.8 kmh SW 14.5 mph23.3 kmh 29.49 in998.6 mb 0.01 in0.3 mm 0.00 in0.0 mm 0.02 in0.5 mm
10:19 AM 33.4°F0.8°C 30.8°F-0.7°C 86% 9.2 mph NW14.8 kmh NW 11.4 mph18.3 kmh 29.49 in998.6 mb 0.01 in0.3 mm 0.00 in0.0 mm 0.02 in0.5 mm
10:20 AM 33.4°F0.8°C 30.8°F-0.7°C 86% 7.6 mph SW12.2 kmh SW 12.1 mph19.5 kmh 29.50 in999.0 mb 0.00 in0.0 mm 0.00 in0.0 mm 0.02 in0.5 mm
10:25 AM 33.4°F0.8°C 30.8°F-0.7°C 86% 7.6 mph S12.2 kmh S 13.0 mph20.9 kmh 29.49 in998.6 mb 0.00 in0.0 mm 0.00 in0.0 mm 0.02 in0.5 mm
10:30 AM 33.4°F0.8°C 30.8°F-0.7°C 86% 10.7 mph W17.2 kmh W 15.2 mph24.5 kmh 29.49 in998.6 mb 0.00 in0.0 mm 0.00 in0.0 mm 0.02 in0.5 mm
10:34 AM 33.4°F0.8°C 30.6°F-0.8°C 85% 5.4 mph S8.7 kmh S 7.6 mph12.2 kmh 29.49 in998.6 mb 0.00 in0.0 mm 0.00 in0.0 mm 0.02 in0.5 mm
10:35 AM 33.4°F0.8°C 30.8°F-0.7°C 86% 7.6 mph S12.2 kmh S 9.8 mph15.8 kmh 29.50 in999.0 mb 0.00 in0.0 mm 0.00 in0.0 mm 0.02 in0.5 mm
10:39 AM 33.4°F0.8°C 30.6°F-0.8°C 85% 8.3 mph S13.4 kmh S 13.0 mph20.9 kmh 29.49 in998.6 mb 0.00 in0.0 mm 0.00 in0.0 mm 0.02 in0.5 mm
10:40 AM 33.4°F0.8°C 30.6°F-0.8°C 85% 9.2 mph S14.8 kmh S 11.4 mph18.3 kmh 29.49 in998.6 mb 0.00 in0.0 mm 0.00 in0.0 mm 0.02 in0.5 mm
10:45 AM 33.4°F0.8°C 30.6°F-0.8°C 85% 7.6 mph S12.2 kmh S 13.6 mph21.9 kmh 29.49 in998.6 mb 0.00 in0.0 mm 0.00 in0.0 mm 0.02 in0.5 mm
10:50 AM 33.6°F0.9°C 30.7°F-0.7°C 85% 11.4 mph S18.3 kmh S 17.4 mph28.0 kmh 29.49 in998.6 mb 0.00 in0.0 mm 0.00 in0.0 mm 0.02 in0.5 mm
10:54 AM 33.6°F0.9°C 30.5°F-0.8°C 84% 5.4 mph S8.7 kmh S 8.3 mph13.4 kmh 29.49 in998.6 mb 0.00 in0.0 mm 0.00 in0.0 mm 0.02 in0.5 mm
10:55 AM 33.6°F0.9°C 30.5°F-0.8°C 84% 9.8 mph S15.8 kmh S 14.5 mph23.3 kmh 29.50 in999.0 mb 0.00 in0.0 mm 0.00 in0.0 mm 0.02 in0.5 mm
10:59 AM 33.6°F0.9°C 30.5°F-0.8°C 84% 9.2 mph S14.8 kmh S 13.0 mph20.9 kmh 29.50 in999.0 mb 0.00 in0.0 mm 0.00 in0.0 mm 0.02 in0.5 mm
11:00 AM 33.6°F0.9°C 30.5°F-0.8°C 84% 6.9 mph SW11.1 kmh SW 13.0 mph20.9 kmh 29.50 in999.0 mb 0.00 in0.0 mm 0.00 in0.0 mm 0.02 in0.5 mm
11:05 AM 33.6°F0.9°C 30.5°F-0.8°C 84% 10.7 mph SE17.2 kmh SE 14.5 mph23.3 kmh 29.50 in999.0 mb 0.00 in0.0 mm 0.00 in0.0 mm 0.02 in0.5 mm
11:10 AM 33.6°F0.9°C 30.3°F-0.9°C 83% 11.4 mph NW18.3 kmh NW 16.8 mph27.0 kmh 29.50 in999.0 mb 0.00 in0.0 mm 0.00 in0.0 mm 0.02 in0.5 mm
11:14 AM 33.6°F0.9°C 30.3°F-0.9°C 83% 9.2 mph NNW14.8 kmh NNW 11.4 mph18.3 kmh 29.49 in998.6 mb 0.00 in0.0 mm 0.00 in0.0 mm 0.02 in0.5 mm
11:15 AM 33.6°F0.9°C 30.3°F-0.9°C 83% 8.3 mph S13.4 kmh S 13.6 mph21.9 kmh 29.49 in998.6 mb 0.00 in0.0 mm 0.00 in0.0 mm 0.02 in0.5 mm
11:19 AM 33.6°F0.9°C 30.3°F-0.9°C 83% 6.9 mph SW11.1 kmh SW 11.4 mph18.3 kmh 29.50 in999.0 mb 0.00 in0.0 mm 0.00 in0.0 mm 0.02 in0.5 mm
11:20 AM 33.6°F0.9°C 30.3°F-0.9°C 83% 8.3 mph SW13.4 kmh SW 11.4 mph18.3 kmh 29.49 in998.6 mb 0.00 in0.0 mm 0.00 in0.0 mm 0.02 in0.5 mm
11:25 AM 33.6°F0.9°C 30.3°F-0.9°C 83% 9.8 mph SW15.8 kmh SW 14.5 mph23.3 kmh 29.49 in998.6 mb 0.00 in0.0 mm 0.00 in0.0 mm 0.02 in0.5 mm
11:30 AM 33.6°F0.9°C 30.3°F-0.9°C 83% 6.0 mph SW9.7 kmh SW 8.3 mph13.4 kmh 29.49 in998.6 mb 0.00 in0.0 mm 0.00 in0.0 mm 0.02 in0.5 mm
11:34 AM 33.6°F0.9°C 30.1°F-1.1°C 82% 9.8 mph S15.8 kmh S 13.6 mph21.9 kmh 29.49 in998.6 mb 0.00 in0.0 mm 0.00 in0.0 mm 0.02 in0.5 mm
11:35 AM 33.6°F0.9°C 30.3°F-0.9°C 83% 6.0 mph SW9.7 kmh SW 9.8 mph15.8 kmh 29.49 in998.6 mb 0.00 in0.0 mm 0.00 in0.0 mm 0.02 in0.5 mm
11:39 AM 33.6°F0.9°C 30.1°F-1.1°C 82% 6.0 mph S9.7 kmh S 9.8 mph15.8 kmh 29.49 in998.6 mb 0.00 in0.0 mm 0.00 in0.0 mm 0.02 in0.5 mm
11:40 AM 33.6°F0.9°C 30.1°F-1.1°C 82% 11.4 mph S18.3 kmh S 14.5 mph23.3 kmh 29.49 in998.6 mb 0.00 in0.0 mm 0.00 in0.0 mm 0.02 in0.5 mm
11:45 AM 33.6°F0.9°C 30.1°F-1.1°C 82% 10.7 mph S17.2 kmh S 16.8 mph27.0 kmh 29.49 in998.6 mb 0.00 in0.0 mm 0.00 in0.0 mm 0.02 in0.5 mm
11:50 AM 33.6°F0.9°C 30.1°F-1.1°C 82% 6.0 mph SW9.7 kmh SW 9.2 mph14.8 kmh 29.49 in998.6 mb 0.00 in0.0 mm 0.00 in0.0 mm 0.02 in0.5 mm
11:54 AM 33.6°F0.9°C 30.1°F-1.1°C 82% 7.6 mph S12.2 kmh S 11.4 mph18.3 kmh 29.49 in998.6 mb 0.00 in0.0 mm 0.00 in0.0 mm 0.02 in0.5 mm
11:55 AM 33.6°F0.9°C 30.1°F-1.1°C 82% 8.3 mph S13.4 kmh S 13.0 mph20.9 kmh 29.49 in998.6 mb 0.00 in0.0 mm 0.00 in0.0 mm 0.02 in0.5 mm
11:59 AM 33.6°F0.9°C 30.1°F-1.1°C 82% 13.6 mph SE21.9 kmh SE 19.0 mph30.6 kmh 29.49 in998.6 mb 0.00 in0.0 mm 0.00 in0.0 mm 0.02 in0.5 mm
12:00 PM 33.6°F0.9°C 30.1°F-1.1°C 82% 8.3 mph S13.4 kmh S 11.4 mph18.3 kmh 29.49 in998.6 mb 0.00 in0.0 mm 0.00 in0.0 mm 0.02 in0.5 mm
12:05 PM 33.8°F1.0°C 30.1°F-1.1°C 81% 4.5 mph WSW7.2 kmh WSW 6.0 mph9.7 kmh 29.48 in998.3 mb 0.00 in0.0 mm 0.00 in0.0 mm 0.02 in0.5 mm
12:10 PM 33.8°F1.0°C 30.1°F-1.1°C 81% 6.9 mph S11.1 kmh S 13.0 mph20.9 kmh 29.48 in998.3 mb 0.00 in0.0 mm 0.00 in0.0 mm 0.02 in0.5 mm
12:14 PM 33.8°F1.0°C 30.1°F-1.1°C 81% 8.3 mph SW13.4 kmh SW 12.1 mph19.5 kmh 29.47 in998.0 mb 0.00 in0.0 mm 0.00 in0.0 mm 0.02 in0.5 mm
12:15 PM 33.8°F1.0°C 30.1°F-1.1°C 81% 9.2 mph S14.8 kmh S 12.1 mph19.5 kmh 29.47 in998.0 mb 0.00 in0.0 mm 0.00 in0.0 mm 0.02 in0.5 mm
12:19 PM 33.8°F1.0°C 30.1°F-1.1°C 81% 6.0 mph SW9.7 kmh SW 13.0 mph20.9 kmh 29.47 in998.0 mb 0.00 in0.0 mm 0.00 in0.0 mm 0.02 in0.5 mm
12:20 PM 33.8°F1.0°C 30.1°F-1.1°C 81% 6.9 mph SW11.1 kmh SW 12.1 mph19.5 kmh 29.47 in998.0 mb 0.00 in0.0 mm 0.00 in0.0 mm 0.02 in0.5 mm
12:25 PM 33.6°F0.9°C 30.1°F-1.1°C 82% 13.0 mph S20.9 kmh S 15.2 mph24.5 kmh 29.47 in998.0 mb 0.00 in0.0 mm 0.00 in0.0 mm 0.02 in0.5 mm
12:30 PM 33.8°F1.0°C 30.1°F-1.1°C 81% 8.3 mph S13.4 kmh S 12.1 mph19.5 kmh 29.47 in998.0 mb 0.00 in0.0 mm 0.00 in0.0 mm 0.02 in0.5 mm
12:34 PM 33.8°F1.0°C 29.9°F-1.2°C 80% 3.8 mph SE6.1 kmh SE 6.0 mph9.7 kmh 29.47 in998.0 mb 0.00 in0.0 mm 0.00 in0.0 mm 0.02 in0.5 mm
12:35 PM 33.8°F1.0°C 30.1°F-1.1°C 81% 9.2 mph SW14.8 kmh SW 14.5 mph23.3 kmh 29.47 in998.0 mb 0.00 in0.0 mm 0.00 in0.0 mm 0.02 in0.5 mm
12:39 PM 33.8°F1.0°C 29.9°F-1.2°C 80% 6.9 mph SW11.1 kmh SW 15.9 mph25.6 kmh 29.48 in998.3 mb 0.00 in0.0 mm 0.00 in0.0 mm 0.02 in0.5 mm
12:40 PM 33.8°F1.0°C 29.9°F-1.2°C 80% 6.0 mph SW9.7 kmh SW 9.2 mph14.8 kmh 29.47 in998.0 mb 0.00 in0.0 mm 0.00 in0.0 mm 0.02 in0.5 mm
12:45 PM 33.8°F1.0°C 29.9°F-1.2°C 80% 7.6 mph N12.2 kmh N 11.4 mph18.3 kmh 29.47 in998.0 mb 0.00 in0.0 mm 0.00 in0.0 mm 0.02 in0.5 mm
12:50 PM 33.8°F1.0°C 29.9°F-1.2°C 80% 11.4 mph S18.3 kmh S 17.4 mph28.0 kmh 29.47 in998.0 mb 0.00 in0.0 mm 0.00 in0.0 mm 0.02 in0.5 mm
12:54 PM 33.6°F0.9°C 29.9°F-1.2°C 81% 13.6 mph S21.9 kmh S 20.6 mph33.2 kmh 29.47 in998.0 mb 0.00 in0.0 mm 0.00 in0.0 mm 0.02 in0.5 mm
12:55 PM 33.6°F0.9°C 29.9°F-1.2°C 81% 9.8 mph SW15.8 kmh SW 14.5 mph23.3 kmh 29.47 in998.0 mb 0.00 in0.0 mm 0.00 in0.0 mm 0.02 in0.5 mm
12:59 PM 33.6°F0.9°C 29.9°F-1.2°C 81% 10.7 mph SW17.2 kmh SW 12.1 mph19.5 kmh 29.47 in998.0 mb 0.00 in0.0 mm 0.00 in0.0 mm 0.02 in0.5 mm
01:00 PM 33.6°F0.9°C 29.7°F-1.3°C 80% 9.8 mph S15.8 kmh S 17.4 mph28.0 kmh 29.47 in998.0 mb 0.00 in0.0 mm 0.00 in0.0 mm 0.02 in0.5 mm
01:05 PM 33.6°F0.9°C 29.7°F-1.3°C 80% 7.6 mph S12.2 kmh S 10.7 mph17.2 kmh 29.47 in998.0 mb 0.00 in0.0 mm 0.00 in0.0 mm 0.02 in0.5 mm
01:10 PM 33.8°F1.0°C 29.6°F-1.3°C 79% 5.4 mph S8.7 kmh S 9.2 mph14.8 kmh 29.47 in998.0 mb 0.00 in0.0 mm 0.00 in0.0 mm 0.02 in0.5 mm
01:14 PM 33.8°F1.0°C 29.6°F-1.3°C 79% 7.6 mph S12.2 kmh S 9.8 mph15.8 kmh 29.46 in997.6 mb 0.00 in0.0 mm 0.00 in0.0 mm 0.02 in0.5 mm
01:15 PM 33.8°F1.0°C 29.6°F-1.3°C 79% 8.3 mph SW13.4 kmh SW 10.7 mph17.2 kmh 29.47 in998.0 mb 0.00 in0.0 mm 0.00 in0.0 mm 0.02 in0.5 mm
01:19 PM 33.8°F1.0°C 29.6°F-1.3°C 79% 8.3 mph SW13.4 kmh SW 13.6 mph21.9 kmh 29.47 in998.0 mb 0.00 in0.0 mm 0.00 in0.0 mm 0.02 in0.5 mm
01:20 PM 33.8°F1.0°C 29.6°F-1.3°C 79% 4.5 mph S7.2 kmh S 6.0 mph9.7 kmh 29.47 in998.0 mb 0.00 in0.0 mm 0.00 in0.0 mm 0.02 in0.5 mm
01:25 PM 33.8°F1.0°C 29.6°F-1.3°C 79% 7.6 mph S12.2 kmh S 11.4 mph18.3 kmh 29.46 in997.6 mb 0.00 in0.0 mm 0.00 in0.0 mm 0.02 in0.5 mm
01:30 PM 33.6°F0.9°C 29.7°F-1.3°C 80% 8.3 mph SW13.4 kmh SW 11.4 mph18.3 kmh 29.47 in998.0 mb 0.00 in0.0 mm 0.00 in0.0 mm 0.02 in0.5 mm
01:34 PM 33.6°F0.9°C 29.7°F-1.3°C 80% 6.0 mph WSW9.7 kmh WSW 10.7 mph17.2 kmh 29.46 in997.6 mb 0.00 in0.0 mm 0.00 in0.0 mm 0.02 in0.5 mm
01:35 PM 33.6°F0.9°C 29.7°F-1.3°C 80% 5.4 mph NNE8.7 kmh NNE 7.6 mph12.2 kmh 29.46 in997.6 mb 0.00 in0.0 mm 0.00 in0.0 mm 0.02 in0.5 mm
01:39 PM 33.6°F0.9°C 29.7°F-1.3°C 80% 6.0 mph S9.7 kmh S 10.7 mph17.2 kmh 29.46 in997.6 mb 0.00 in0.0 mm 0.00 in0.0 mm 0.02 in0.5 mm
01:40 PM 33.6°F0.9°C 29.7°F-1.3°C 80% 6.0 mph S9.7 kmh S 9.2 mph14.8 kmh 29.47 in998.0 mb 0.00 in0.0 mm 0.00 in0.0 mm 0.02 in0.5 mm
01:45 PM 33.6°F0.9°C 29.7°F-1.3°C 80% 10.7 mph S17.2 kmh S 15.2 mph24.5 kmh 29.47 in998.0 mb 0.00 in0.0 mm 0.00 in0.0 mm 0.02 in0.5 mm
01:50 PM 33.6°F0.9°C 29.7°F-1.3°C 80% 7.6 mph SW12.2 kmh SW 13.0 mph20.9 kmh 29.47 in998.0 mb 0.00 in0.0 mm 0.00 in0.0 mm 0.02 in0.5 mm
01:54 PM 33.6°F0.9°C 29.7°F-1.3°C 80% 10.7 mph S17.2 kmh S 17.4 mph28.0 kmh 29.46 in997.6 mb 0.00 in0.0 mm 0.00 in0.0 mm 0.02 in0.5 mm
01:55 PM 33.6°F0.9°C 29.7°F-1.3°C 80% 6.0 mph SW9.7 kmh SW 8.3 mph13.4 kmh 29.47 in998.0 mb 0.00 in0.0 mm 0.00 in0.0 mm 0.02 in0.5 mm
01:59 PM 33.6°F0.9°C 29.7°F-1.3°C 80% 11.4 mph WSW18.3 kmh WSW 18.3 mph29.5 kmh 29.47 in998.0 mb 0.00 in0.0 mm 0.00 in0.0 mm 0.02 in0.5 mm
02:00 PM 33.6°F0.9°C 29.5°F-1.4°C 79% 10.7 mph S17.2 kmh S 15.9 mph25.6 kmh 29.47 in998.0 mb 0.00 in0.0 mm 0.00 in0.0 mm 0.02 in0.5 mm
02:05 PM 33.6°F0.9°C 29.5°F-1.4°C 79% 8.3 mph SW13.4 kmh SW 12.1 mph19.5 kmh 29.46 in997.6 mb 0.00 in0.0 mm 0.00 in0.0 mm 0.02 in0.5 mm
02:10 PM 33.6°F0.9°C 29.2°F-1.6°C 78% 6.9 mph SE11.1 kmh SE 11.4 mph18.3 kmh 29.46 in997.6 mb 0.00 in0.0 mm 0.00 in0.0 mm 0.02 in0.5 mm
02:14 PM 33.6°F0.9°C 29.2°F-1.6°C 78% 9.2 mph ESE14.8 kmh ESE 14.5 mph23.3 kmh 29.46 in997.6 mb 0.00 in0.0 mm 0.00 in0.0 mm 0.02 in0.5 mm
02:15 PM 33.6°F0.9°C 29.2°F-1.6°C 78% 6.0 mph SE9.7 kmh SE 7.6 mph12.2 kmh 29.46 in997.6 mb 0.00 in0.0 mm 0.00 in0.0 mm 0.02 in0.5 mm
02:19 PM 33.8°F1.0°C 29.0°F-1.7°C 76% 3.8 mph SE6.1 kmh SE 7.6 mph12.2 kmh 29.46 in997.6 mb 0.00 in0.0 mm 0.00 in0.0 mm 0.02 in0.5 mm
02:20 PM 33.8°F1.0°C 29.0°F-1.7°C 76% 3.8 mph S6.1 kmh S 5.4 mph8.7 kmh 29.45 in997.3 mb 0.00 in0.0 mm 0.00 in0.0 mm 0.02 in0.5 mm
02:25 PM 33.8°F1.0°C 28.7°F-1.8°C 75% 6.9 mph S11.1 kmh S 9.2 mph14.8 kmh 29.45 in997.3 mb 0.00 in0.0 mm 0.00 in0.0 mm 0.02 in0.5 mm
02:30 PM 33.8°F1.0°C 28.7°F-1.8°C 75% 6.0 mph 9.7 kmh 9.2 mph14.8 kmh 29.45 in997.3 mb 0.00 in0.0 mm 0.00 in0.0 mm 0.02 in0.5 mm
02:34 PM 34.0°F1.1°C 28.7°F-1.8°C 74% 5.4 mph SE8.7 kmh SE 9.8 mph15.8 kmh 29.45 in997.3 mb 0.00 in0.0 mm 0.00 in0.0 mm 0.02 in0.5 mm
02:35 PM 33.8°F1.0°C 28.7°F-1.8°C 75% 9.8 mph SE15.8 kmh SE 13.6 mph21.9 kmh 29.45 in997.3 mb 0.00 in0.0 mm 0.00 in0.0 mm 0.02 in0.5 mm
02:39 PM 33.8°F1.0°C 28.5°F-1.9°C 74% 4.5 mph NNW7.2 kmh NNW 8.3 mph13.4 kmh 29.45 in997.3 mb 0.00 in0.0 mm 0.00 in0.0 mm 0.02 in0.5 mm
02:40 PM 33.8°F1.0°C 28.5°F-1.9°C 74% 6.0 mph S9.7 kmh S 12.1 mph19.5 kmh 29.44 in997.0 mb 0.00 in0.0 mm 0.00 in0.0 mm 0.02 in0.5 mm
02:45 PM 33.8°F1.0°C 28.5°F-1.9°C 74% 11.4 mph S18.3 kmh S 15.2 mph24.5 kmh 29.45 in997.3 mb 0.00 in0.0 mm 0.00 in0.0 mm 0.02 in0.5 mm
02:50 PM 33.6°F0.9°C 28.3°F-2.1°C 74% 5.4 mph WSW8.7 kmh WSW 11.4 mph18.3 kmh 29.44 in997.0 mb 0.00 in0.0 mm 0.00 in0.0 mm 0.02 in0.5 mm
02:54 PM 33.6°F0.9°C 28.3°F-2.1°C 74% 6.9 mph S11.1 kmh S 13.0 mph20.9 kmh 29.44 in997.0 mb 0.00 in0.0 mm 0.00 in0.0 mm 0.02 in0.5 mm
02:55 PM 33.6°F0.9°C 28.3°F-2.1°C 74% 6.9 mph S11.1 kmh S 12.1 mph19.5 kmh 29.44 in997.0 mb 0.00 in0.0 mm 0.00 in0.0 mm 0.02 in0.5 mm
02:59 PM 33.4°F0.8°C 28.2°F-2.1°C 74% 6.0 mph S9.7 kmh S 9.8 mph15.8 kmh 29.45 in997.3 mb 0.00 in0.0 mm 0.00 in0.0 mm 0.02 in0.5 mm
03:00 PM 33.3°F0.7°C 28.2°F-2.1°C 75% 3.1 mph SW5.0 kmh SW 5.4 mph8.7 kmh 29.44 in997.0 mb 0.00 in0.0 mm 0.00 in0.0 mm 0.02 in0.5 mm
03:05 PM 33.3°F0.7°C 28.2°F-2.1°C 75% 4.5 mph S7.2 kmh S 6.9 mph11.1 kmh 29.43 in996.6 mb 0.00 in0.0 mm 0.00 in0.0 mm 0.02 in0.5 mm
03:10 PM 33.3°F0.7°C 28.2°F-2.1°C 75% 4.5 mph S7.2 kmh S 7.6 mph12.2 kmh 29.44 in997.0 mb 0.00 in0.0 mm 0.00 in0.0 mm 0.02 in0.5 mm
03:14 PM 33.1°F0.6°C 28.0°F-2.2°C 75% 6.0 mph S9.7 kmh S 11.4 mph18.3 kmh 29.43 in996.6 mb 0.00 in0.0 mm 0.00 in0.0 mm 0.02 in0.5 mm
03:15 PM 33.1°F0.6°C 28.0°F-2.2°C 75% 3.1 mph S5.0 kmh S 5.4 mph8.7 kmh 29.44 in997.0 mb 0.00 in0.0 mm 0.00 in0.0 mm 0.02 in0.5 mm
03:19 PM 33.1°F0.6°C 28.3°F-2.1°C 76% 3.1 mph S5.0 kmh S 5.4 mph8.7 kmh 29.44 in997.0 mb 0.00 in0.0 mm 0.00 in0.0 mm 0.02 in0.5 mm
03:20 PM 33.1°F0.6°C 28.3°F-2.1°C 76% 7.6 mph SE12.2 kmh SE 9.8 mph15.8 kmh 29.43 in996.6 mb 0.00 in0.0 mm 0.00 in0.0 mm 0.02 in0.5 mm
03:25 PM 32.9°F0.5°C 28.1°F-2.2°C 76% 5.4 mph SE8.7 kmh SE 8.3 mph13.4 kmh 29.43 in996.6 mb 0.00 in0.0 mm 0.00 in0.0 mm 0.02 in0.5 mm
03:30 PM 32.7°F0.4°C 27.9°F-2.3°C 76% 3.1 mph SE5.0 kmh SE 5.4 mph8.7 kmh 29.43 in996.6 mb 0.00 in0.0 mm 0.00 in0.0 mm 0.02 in0.5 mm
03:34 PM 32.7°F0.4°C 27.9°F-2.3°C 76% 6.0 mph S9.7 kmh S 10.7 mph17.2 kmh 29.43 in996.6 mb 0.00 in0.0 mm 0.00 in0.0 mm 0.02 in0.5 mm
03:35 PM 32.7°F0.4°C 27.9°F-2.3°C 76% 3.8 mph SE6.1 kmh SE 6.0 mph9.7 kmh 29.43 in996.6 mb 0.00 in0.0 mm 0.00 in0.0 mm 0.02 in0.5 mm
03:39 PM 32.5°F0.3°C 27.7°F-2.4°C 76% 5.4 mph E8.7 kmh E 9.8 mph15.8 kmh 29.43 in996.6 mb 0.00 in0.0 mm 0.00 in0.0 mm 0.02 in0.5 mm
03:40 PM 32.5°F0.3°C 27.7°F-2.4°C 76% 2.2 mph SW3.5 kmh SW 4.5 mph7.2 kmh 29.43 in996.6 mb 0.00 in0.0 mm 0.00 in0.0 mm 0.02 in0.5 mm
03:45 PM 32.5°F0.3°C 27.7°F-2.4°C 76% 4.5 mph E7.2 kmh E 9.2 mph14.8 kmh 29.43 in996.6 mb 0.00 in0.0 mm 0.00 in0.0 mm 0.02 in0.5 mm
03:50 PM 32.4°F0.2°C 27.6°F-2.4°C 76% 3.8 mph SE6.1 kmh SE 7.6 mph12.2 kmh 29.43 in996.6 mb 0.00 in0.0 mm 0.00 in0.0 mm 0.02 in0.5 mm
03:54 PM 32.4°F0.2°C 27.6°F-2.4°C 76% 6.0 mph S9.7 kmh S 9.2 mph14.8 kmh 29.43 in996.6 mb 0.00 in0.0 mm 0.00 in0.0 mm 0.02 in0.5 mm
03:55 PM 32.4°F0.2°C 27.6°F-2.4°C 76% 6.0 mph S9.7 kmh S 9.8 mph15.8 kmh 29.43 in996.6 mb 0.00 in0.0 mm 0.00 in0.0 mm 0.02 in0.5 mm
03:59 PM 32.4°F0.2°C 27.6°F-2.4°C 76% 3.1 mph S5.0 kmh S 6.0 mph9.7 kmh 29.42 in996.3 mb 0.00 in0.0 mm 0.00 in0.0 mm 0.02 in0.5 mm
04:00 PM 32.4°F0.2°C 27.6°F-2.4°C 76% 7.6 mph S12.2 kmh S 13.0 mph20.9 kmh 29.43 in996.6 mb 0.00 in0.0 mm 0.00 in0.0 mm 0.02 in0.5 mm
04:05 PM 32.5°F0.3°C 27.7°F-2.4°C 76% 6.0 mph SW9.7 kmh SW 9.8 mph15.8 kmh 29.42 in996.3 mb 0.00 in0.0 mm 0.00 in0.0 mm 0.02 in0.5 mm
04:10 PM 32.4°F0.2°C 27.6°F-2.4°C 76% 5.4 mph SE8.7 kmh SE 7.6 mph12.2 kmh 29.42 in996.3 mb 0.00 in0.0 mm 0.00 in0.0 mm 0.02 in0.5 mm
04:14 PM 32.4°F0.2°C 27.8°F-2.3°C 77% 3.8 mph SW6.1 kmh SW 6.9 mph11.1 kmh 29.41 in995.9 mb 0.00 in0.0 mm 0.00 in0.0 mm 0.02 in0.5 mm
04:15 PM 32.4°F0.2°C 27.6°F-2.4°C 76% 8.3 mph SE13.4 kmh SE 11.4 mph18.3 kmh 29.42 in996.3 mb 0.00 in0.0 mm 0.00 in0.0 mm 0.02 in0.5 mm
04:19 PM 32.4°F0.2°C 27.8°F-2.3°C 77% 3.8 mph SW6.1 kmh SW 10.7 mph17.2 kmh 29.42 in996.3 mb 0.00 in0.0 mm 0.00 in0.0 mm 0.02 in0.5 mm
04:20 PM 32.4°F0.2°C 27.8°F-2.3°C 77% 4.5 mph SE7.2 kmh SE 9.2 mph14.8 kmh 29.41 in995.9 mb 0.00 in0.0 mm 0.00 in0.0 mm 0.02 in0.5 mm
04:25 PM 32.4°F0.2°C 27.8°F-2.3°C 77% 6.9 mph S11.1 kmh S 9.8 mph15.8 kmh 29.41 in995.9 mb 0.00 in0.0 mm 0.00 in0.0 mm 0.02 in0.5 mm
04:30 PM 32.4°F0.2°C 27.8°F-2.3°C 77% 6.0 mph S9.7 kmh S 9.2 mph14.8 kmh 29.41 in995.9 mb 0.00 in0.0 mm 0.00 in0.0 mm 0.02 in0.5 mm
04:34 PM 32.4°F0.2°C 27.8°F-2.3°C 77% 5.4 mph SSW8.7 kmh SSW 8.3 mph13.4 kmh 29.41 in995.9 mb 0.00 in0.0 mm 0.00 in0.0 mm 0.02 in0.5 mm
04:35 PM 32.4°F0.2°C 27.8°F-2.3°C 77% 3.8 mph NW6.1 kmh NW 6.0 mph9.7 kmh 29.41 in995.9 mb 0.00 in0.0 mm 0.00 in0.0 mm 0.02 in0.5 mm
04:39 PM 32.4°F0.2°C 27.8°F-2.3°C 77% 4.5 mph S7.2 kmh S 7.6 mph12.2 kmh 29.40 in995.6 mb 0.00 in0.0 mm 0.00 in0.0 mm 0.02 in0.5 mm
04:40 PM 32.5°F0.3°C 28.0°F-2.2°C 77% 3.8 mph SW6.1 kmh SW 6.0 mph9.7 kmh 29.40 in995.6 mb 0.00 in0.0 mm 0.00 in0.0 mm 0.02 in0.5 mm
04:45 PM 32.5°F0.3°C 28.0°F-2.2°C 77% 5.4 mph NW8.7 kmh NW 9.2 mph14.8 kmh 29.41 in995.9 mb 0.00 in0.0 mm 0.00 in0.0 mm 0.02 in0.5 mm
04:50 PM 32.5°F0.3°C 27.7°F-2.4°C 76% 4.5 mph SW7.2 kmh SW 6.9 mph11.1 kmh 29.40 in995.6 mb 0.00 in0.0 mm 0.00 in0.0 mm 0.02 in0.5 mm
04:54 PM 32.7°F0.4°C 27.9°F-2.3°C 76% 3.8 mph E6.1 kmh E 6.9 mph11.1 kmh 29.41 in995.9 mb 0.00 in0.0 mm 0.00 in0.0 mm 0.02 in0.5 mm
04:55 PM 32.5°F0.3°C 27.7°F-2.4°C 76% 4.5 mph E7.2 kmh E 6.0 mph9.7 kmh 29.40 in995.6 mb 0.00 in0.0 mm 0.00 in0.0 mm 0.02 in0.5 mm
04:59 PM 32.7°F0.4°C 27.9°F-2.3°C 76% 8.3 mph S13.4 kmh S 13.0 mph20.9 kmh 29.40 in995.6 mb 0.00 in0.0 mm 0.00 in0.0 mm 0.02 in0.5 mm
05:00 PM 32.9°F0.5°C 28.1°F-2.2°C 76% 5.4 mph SW8.7 kmh SW 9.2 mph14.8 kmh 29.40 in995.6 mb 0.00 in0.0 mm 0.00 in0.0 mm 0.02 in0.5 mm
05:05 PM 32.9°F0.5°C 27.9°F-2.3°C 75% 4.5 mph S7.2 kmh S 7.6 mph12.2 kmh 29.40 in995.6 mb 0.00 in0.0 mm 0.00 in0.0 mm 0.02 in0.5 mm
05:10 PM 32.9°F0.5°C 27.9°F-2.3°C 75% 6.0 mph SE9.7 kmh SE 7.6 mph12.2 kmh 29.40 in995.6 mb 0.00 in0.0 mm 0.00 in0.0 mm 0.02 in0.5 mm
05:14 PM 33.1°F0.6°C 28.0°F-2.2°C 75% 4.5 mph SE7.2 kmh SE 7.6 mph12.2 kmh 29.39 in995.3 mb 0.00 in0.0 mm 0.00 in0.0 mm 0.02 in0.5 mm
05:15 PM 32.9°F0.5°C 27.9°F-2.3°C 75% 6.0 mph S9.7 kmh S 8.3 mph13.4 kmh 29.39 in995.3 mb 0.00 in0.0 mm 0.00 in0.0 mm 0.02 in0.5 mm
05:19 PM 33.1°F0.6°C 28.0°F-2.2°C 75% 4.5 mph S7.2 kmh S 7.6 mph12.2 kmh 29.40 in995.6 mb 0.00 in0.0 mm 0.00 in0.0 mm 0.02 in0.5 mm
05:20 PM 33.1°F0.6°C 27.8°F-2.3°C 74% 3.8 mph SE6.1 kmh SE 6.9 mph11.1 kmh 29.39 in995.3 mb 0.00 in0.0 mm 0.00 in0.0 mm 0.02 in0.5 mm
05:25 PM 33.1°F0.6°C 27.8°F-2.3°C 74% 4.5 mph SW7.2 kmh SW 7.6 mph12.2 kmh 29.40 in995.6 mb 0.00 in0.0 mm 0.00 in0.0 mm 0.02 in0.5 mm
05:30 PM 33.3°F0.7°C 28.0°F-2.2°C 74% 6.9 mph S11.1 kmh S 10.7 mph17.2 kmh 29.39 in995.3 mb 0.00 in0.0 mm 0.00 in0.0 mm 0.02 in0.5 mm
05:34 PM 33.3°F0.7°C 28.0°F-2.2°C 74% 6.0 mph SE9.7 kmh SE 9.8 mph15.8 kmh 29.39 in995.3 mb 0.00 in0.0 mm 0.00 in0.0 mm 0.02 in0.5 mm
05:35 PM 33.3°F0.7°C 28.0°F-2.2°C 74% 4.5 mph NE7.2 kmh NE 6.9 mph11.1 kmh 29.39 in995.3 mb 0.00 in0.0 mm 0.00 in0.0 mm 0.02 in0.5 mm
05:39 PM 33.3°F0.7°C 27.7°F-2.4°C 73% 4.5 mph SE7.2 kmh SE 8.3 mph13.4 kmh 29.39 in995.3 mb 0.00 in0.0 mm 0.00 in0.0 mm 0.02 in0.5 mm
05:40 PM 33.4°F0.8°C 27.9°F-2.3°C 73% 6.0 mph SW9.7 kmh SW 9.2 mph14.8 kmh 29.39 in995.3 mb 0.00 in0.0 mm 0.00 in0.0 mm 0.02 in0.5 mm
05:45 PM 33.4°F0.8°C 27.9°F-2.3°C 73% 6.0 mph S9.7 kmh S 7.6 mph12.2 kmh 29.38 in994.9 mb 0.00 in0.0 mm 0.00 in0.0 mm 0.02 in0.5 mm
05:50 PM 33.4°F0.8°C 27.9°F-2.3°C 73% 6.0 mph WSW9.7 kmh WSW 8.3 mph13.4 kmh 29.38 in994.9 mb 0.00 in0.0 mm 0.00 in0.0 mm 0.02 in0.5 mm
05:54 PM 33.6°F0.9°C 28.1°F-2.2°C 73% 3.1 mph SE5.0 kmh SE 5.4 mph8.7 kmh 29.38 in994.9 mb 0.00 in0.0 mm 0.00 in0.0 mm 0.02 in0.5 mm
05:55 PM 33.4°F0.8°C 27.9°F-2.3°C 73% 4.5 mph SW7.2 kmh SW 7.6 mph12.2 kmh 29.39 in995.3 mb 0.00 in0.0 mm 0.00 in0.0 mm 0.02 in0.5 mm
05:59 PM 33.6°F0.9°C 28.1°F-2.2°C 73% 5.4 mph SW8.7 kmh SW 8.3 mph13.4 kmh 29.39 in995.3 mb 0.00 in0.0 mm 0.00 in0.0 mm 0.02 in0.5 mm
06:00 PM 33.6°F0.9°C 28.1°F-2.2°C 73% 7.6 mph NNW12.2 kmh NNW 9.8 mph15.8 kmh 29.39 in995.3 mb 0.00 in0.0 mm 0.00 in0.0 mm 0.02 in0.5 mm
06:05 PM 33.6°F0.9°C 27.9°F-2.3°C 72% 5.4 mph S8.7 kmh S 6.9 mph11.1 kmh 29.39 in995.3 mb 0.00 in0.0 mm 0.00 in0.0 mm 0.02 in0.5 mm
06:10 PM 33.8°F1.0°C 27.8°F-2.3°C 71% 6.0 mph S9.7 kmh S 7.6 mph12.2 kmh 29.38 in994.9 mb 0.00 in0.0 mm 0.00 in0.0 mm 0.02 in0.5 mm
06:14 PM 34.0°F1.1°C 28.0°F-2.2°C 71% 8.3 mph S13.4 kmh S 10.7 mph17.2 kmh 29.39 in995.3 mb 0.00 in0.0 mm 0.00 in0.0 mm 0.02 in0.5 mm
06:15 PM 33.8°F1.0°C 27.8°F-2.3°C 71% 5.4 mph S8.7 kmh S 10.7 mph17.2 kmh 29.39 in995.3 mb 0.00 in0.0 mm 0.00 in0.0 mm 0.02 in0.5 mm
06:19 PM 34.0°F1.1°C 27.7°F-2.4°C 70% 5.4 mph S8.7 kmh S 8.3 mph13.4 kmh 29.38 in994.9 mb 0.00 in0.0 mm 0.00 in0.0 mm 0.02 in0.5 mm
06:20 PM 34.0°F1.1°C 27.7°F-2.4°C 70% 3.1 mph S5.0 kmh S 4.5 mph7.2 kmh 29.38 in994.9 mb 0.00 in0.0 mm 0.00 in0.0 mm 0.02 in0.5 mm
06:25 PM 34.0°F1.1°C 27.7°F-2.4°C 70% 5.4 mph SE8.7 kmh SE 10.7 mph17.2 kmh 29.38 in994.9 mb 0.00 in0.0 mm 0.00 in0.0 mm 0.02 in0.5 mm
06:30 PM 34.2°F1.2°C 27.6°F-2.4°C 69% 2.2 mph SW3.5 kmh SW 4.5 mph7.2 kmh 29.38 in994.9 mb 0.00 in0.0 mm 0.00 in0.0 mm 0.02 in0.5 mm
06:34 PM 34.0°F1.1°C 27.5°F-2.5°C 69% 4.5 mph SSE7.2 kmh SSE 7.6 mph12.2 kmh 29.37 in994.6 mb 0.00 in0.0 mm 0.00 in0.0 mm 0.02 in0.5 mm
06:35 PM 34.2°F1.2°C 27.6°F-2.4°C 69% 4.5 mph S7.2 kmh S 7.6 mph12.2 kmh 29.37 in994.6 mb 0.00 in0.0 mm 0.00 in0.0 mm 0.02 in0.5 mm
06:39 PM 34.2°F1.2°C 27.6°F-2.4°C 69% 3.1 mph SW5.0 kmh SW 8.3 mph13.4 kmh 29.37 in994.6 mb 0.00 in0.0 mm 0.00 in0.0 mm 0.02 in0.5 mm
06:40 PM 34.0°F1.1°C 27.5°F-2.5°C 69% 6.0 mph SW9.7 kmh SW 8.3 mph13.4 kmh 29.37 in994.6 mb 0.00 in0.0 mm 0.00 in0.0 mm 0.02 in0.5 mm
06:45 PM 34.2°F1.2°C 27.4°F-2.6°C 68% 5.4 mph S8.7 kmh S 8.3 mph13.4 kmh 29.37 in994.6 mb 0.00 in0.0 mm 0.00 in0.0 mm 0.02 in0.5 mm
06:50 PM 34.2°F1.2°C 27.1°F-2.7°C 67% 5.4 mph S8.7 kmh S 8.3 mph13.4 kmh 29.38 in994.9 mb 0.00 in0.0 mm 0.00 in0.0 mm 0.02 in0.5 mm
06:54 PM 34.2°F1.2°C 27.1°F-2.7°C 67% 9.2 mph SE14.8 kmh SE 13.6 mph21.9 kmh 29.37 in994.6 mb 0.00 in0.0 mm 0.00 in0.0 mm 0.02 in0.5 mm
06:55 PM 34.2°F1.2°C 27.1°F-2.7°C 67% 5.4 mph S8.7 kmh S 9.8 mph15.8 kmh 29.38 in994.9 mb 0.00 in0.0 mm 0.00 in0.0 mm 0.02 in0.5 mm
06:59 PM 34.2°F1.2°C 26.9°F-2.8°C 66% 5.4 mph SW8.7 kmh SW 6.9 mph11.1 kmh 29.37 in994.6 mb 0.00 in0.0 mm 0.00 in0.0 mm 0.02 in0.5 mm
07:00 PM 34.2°F1.2°C 26.9°F-2.8°C 66% 2.2 mph S3.5 kmh S 9.8 mph15.8 kmh 29.37 in994.6 mb 0.00 in0.0 mm 0.00 in0.0 mm 0.02 in0.5 mm
07:05 PM 34.2°F1.2°C 26.6°F-3.0°C 65% 8.3 mph SW13.4 kmh SW 11.4 mph18.3 kmh 29.38 in994.9 mb 0.00 in0.0 mm 0.00 in0.0 mm 0.02 in0.5 mm
07:10 PM 34.3°F1.3°C 26.8°F-2.9°C 65% 8.3 mph SE13.4 kmh SE 12.1 mph19.5 kmh 29.38 in994.9 mb 0.00 in0.0 mm 0.00 in0.0 mm 0.02 in0.5 mm
07:14 PM 34.2°F1.2°C 26.4°F-3.1°C 64% 9.2 mph S14.8 kmh S 15.2 mph24.5 kmh 29.39 in995.3 mb 0.00 in0.0 mm 0.00 in0.0 mm 0.02 in0.5 mm
07:15 PM 34.3°F1.3°C 26.8°F-2.9°C 65% 6.9 mph S11.1 kmh S 12.1 mph19.5 kmh 29.39 in995.3 mb 0.00 in0.0 mm 0.00 in0.0 mm 0.02 in0.5 mm
07:19 PM 34.2°F1.2°C 26.4°F-3.1°C 64% 8.3 mph SW13.4 kmh SW 13.0 mph20.9 kmh 29.39 in995.3 mb 0.00 in0.0 mm 0.00 in0.0 mm 0.02 in0.5 mm
07:20 PM 34.2°F1.2°C 26.4°F-3.1°C 64% 8.3 mph SE13.4 kmh SE 13.6 mph21.9 kmh 29.39 in995.3 mb 0.00 in0.0 mm 0.00 in0.0 mm 0.02 in0.5 mm
07:25 PM 34.2°F1.2°C 26.4°F-3.1°C 64% 6.9 mph S11.1 kmh S 9.2 mph14.8 kmh 29.39 in995.3 mb 0.00 in0.0 mm 0.00 in0.0 mm 0.02 in0.5 mm
07:30 PM 34.2°F1.2°C 26.4°F-3.1°C 64% 7.6 mph S12.2 kmh S 11.4 mph18.3 kmh 29.39 in995.3 mb 0.00 in0.0 mm 0.00 in0.0 mm 0.02 in0.5 mm
07:35 PM 34.2°F1.2°C 26.4°F-3.1°C 64% 8.3 mph SW13.4 kmh SW 12.1 mph19.5 kmh 29.39 in995.3 mb 0.00 in0.0 mm 0.00 in0.0 mm 0.02 in0.5 mm
07:40 PM 34.2°F1.2°C 26.1°F-3.3°C 63% 8.3 mph SW13.4 kmh SW 12.1 mph19.5 kmh 29.38 in994.9 mb 0.00 in0.0 mm 0.00 in0.0 mm 0.02 in0.5 mm
07:45 PM 34.0°F1.1°C 25.9°F-3.4°C 63% 2.2 mph S3.5 kmh S 3.8 mph6.1 kmh 29.38 in994.9 mb 0.00 in0.0 mm 0.00 in0.0 mm 0.02 in0.5 mm
07:50 PM 34.0°F1.1°C 25.9°F-3.4°C 63% 3.8 mph SW6.1 kmh SW 5.4 mph8.7 kmh 29.37 in994.6 mb 0.00 in0.0 mm 0.00 in0.0 mm 0.02 in0.5 mm
07:55 PM 34.0°F1.1°C 25.9°F-3.4°C 63% 9.2 mph SW14.8 kmh SW 13.6 mph21.9 kmh 29.37 in994.6 mb 0.00 in0.0 mm 0.00 in0.0 mm 0.02 in0.5 mm
08:00 PM 34.0°F1.1°C 25.9°F-3.4°C 63% 10.7 mph SW17.2 kmh SW 13.6 mph21.9 kmh 29.37 in994.6 mb 0.00 in0.0 mm 0.00 in0.0 mm 0.02 in0.5 mm
08:05 PM 34.0°F1.1°C 25.9°F-3.4°C 63% 4.5 mph NW7.2 kmh NW 6.0 mph9.7 kmh 29.37 in994.6 mb 0.00 in0.0 mm 0.00 in0.0 mm 0.02 in0.5 mm
08:10 PM 34.0°F1.1°C 25.9°F-3.4°C 63% 3.8 mph SW6.1 kmh SW 5.4 mph8.7 kmh 29.37 in994.6 mb 0.00 in0.0 mm 0.00 in0.0 mm 0.02 in0.5 mm
08:15 PM 34.0°F1.1°C 25.9°F-3.4°C 63% 7.6 mph SE12.2 kmh SE 10.7 mph17.2 kmh 29.36 in994.2 mb 0.00 in0.0 mm 0.00 in0.0 mm 0.02 in0.5 mm
08:20 PM 34.0°F1.1°C 25.6°F-3.6°C 62% 3.1 mph S5.0 kmh S 5.4 mph8.7 kmh 29.36 in994.2 mb 0.00 in0.0 mm 0.00 in0.0 mm 0.02 in0.5 mm
08:25 PM 34.0°F1.1°C 25.6°F-3.6°C 62% 9.2 mph S14.8 kmh S 12.1 mph19.5 kmh 29.37 in994.6 mb 0.00 in0.0 mm 0.00 in0.0 mm 0.02 in0.5 mm
08:30 PM 34.0°F1.1°C 25.6°F-3.6°C 62% 11.4 mph S18.3 kmh S 13.0 mph20.9 kmh 29.37 in994.6 mb 0.00 in0.0 mm 0.00 in0.0 mm 0.02 in0.5 mm
08:35 PM 34.0°F1.1°C 25.6°F-3.6°C 62% 3.8 mph S6.1 kmh S 6.0 mph9.7 kmh 29.38 in994.9 mb 0.00 in0.0 mm 0.00 in0.0 mm 0.02 in0.5 mm
08:40 PM 34.0°F1.1°C 25.6°F-3.6°C 62% 4.5 mph W7.2 kmh W 7.6 mph12.2 kmh 29.38 in994.9 mb 0.00 in0.0 mm 0.00 in0.0 mm 0.02 in0.5 mm
08:45 PM 33.8°F1.0°C 25.5°F-3.6°C 62% 6.9 mph S11.1 kmh S 12.1 mph19.5 kmh 29.38 in994.9 mb 0.00 in0.0 mm 0.00 in0.0 mm 0.02 in0.5 mm
08:50 PM 33.8°F1.0°C 25.5°F-3.6°C 62% 5.4 mph SW8.7 kmh SW 10.7 mph17.2 kmh 29.39 in995.3 mb 0.00 in0.0 mm 0.00 in0.0 mm 0.02 in0.5 mm
08:55 PM 33.8°F1.0°C 25.5°F-3.6°C 62% 5.4 mph S8.7 kmh S 6.9 mph11.1 kmh 29.38 in994.9 mb 0.00 in0.0 mm 0.00 in0.0 mm 0.02 in0.5 mm
09:00 PM 33.8°F1.0°C 25.5°F-3.6°C 62% 5.4 mph S8.7 kmh S 8.3 mph13.4 kmh 29.38 in994.9 mb 0.00 in0.0 mm 0.00 in0.0 mm 0.02 in0.5 mm
09:05 PM 33.8°F1.0°C 25.5°F-3.6°C 62% 5.4 mph S8.7 kmh S 6.9 mph11.1 kmh 29.39 in995.3 mb 0.00 in0.0 mm 0.00 in0.0 mm 0.02 in0.5 mm
09:10 PM 33.8°F1.0°C 25.5°F-3.6°C 62% 9.8 mph NNW15.8 kmh NNW 13.6 mph21.9 kmh 29.38 in994.9 mb 0.00 in0.0 mm 0.00 in0.0 mm 0.02 in0.5 mm
09:15 PM 33.8°F1.0°C 25.5°F-3.6°C 62% 6.9 mph SW11.1 kmh SW 11.4 mph18.3 kmh 29.39 in995.3 mb 0.00 in0.0 mm 0.00 in0.0 mm 0.02 in0.5 mm
09:20 PM 33.8°F1.0°C 25.5°F-3.6°C 62% 8.3 mph S13.4 kmh S 15.2 mph24.5 kmh 29.38 in994.9 mb 0.00 in0.0 mm 0.00 in0.0 mm 0.02 in0.5 mm
09:25 PM 33.8°F1.0°C 25.5°F-3.6°C 62% 6.0 mph S9.7 kmh S 11.4 mph18.3 kmh 29.39 in995.3 mb 0.00 in0.0 mm 0.00 in0.0 mm 0.02 in0.5 mm
09:30 PM 33.6°F0.9°C 25.6°F-3.6°C 63% 9.2 mph S14.8 kmh S 13.0 mph20.9 kmh 29.39 in995.3 mb 0.00 in0.0 mm 0.00 in0.0 mm 0.02 in0.5 mm
09:35 PM 33.6°F0.9°C 25.6°F-3.6°C 63% 6.0 mph SW9.7 kmh SW 12.1 mph19.5 kmh 29.38 in994.9 mb 0.00 in0.0 mm 0.00 in0.0 mm 0.02 in0.5 mm
09:40 PM 33.6°F0.9°C 25.6°F-3.6°C 63% 7.6 mph SE12.2 kmh SE 10.7 mph17.2 kmh 29.38 in994.9 mb 0.00 in0.0 mm 0.00 in0.0 mm 0.02 in0.5 mm
09:45 PM 33.6°F0.9°C 25.6°F-3.6°C 63% 6.0 mph SW9.7 kmh SW 8.3 mph13.4 kmh 29.39 in995.3 mb 0.00 in0.0 mm 0.00 in0.0 mm 0.02 in0.5 mm
09:50 PM 33.6°F0.9°C 25.6°F-3.6°C 63% 7.6 mph S12.2 kmh S 11.4 mph18.3 kmh 29.39 in995.3 mb 0.00 in0.0 mm 0.00 in0.0 mm 0.02 in0.5 mm
09:55 PM 33.6°F0.9°C 25.6°F-3.6°C 63% 8.3 mph SW13.4 kmh SW 10.7 mph17.2 kmh 29.39 in995.3 mb 0.00 in0.0 mm 0.00 in0.0 mm 0.02 in0.5 mm
10:00 PM 33.8°F1.0°C 25.5°F-3.6°C 62% 5.4 mph SE8.7 kmh SE 8.3 mph13.4 kmh 29.39 in995.3 mb 0.00 in0.0 mm 0.00 in0.0 mm 0.02 in0.5 mm
10:05 PM 33.8°F1.0°C 25.5°F-3.6°C 62% 5.4 mph SE8.7 kmh SE 7.6 mph12.2 kmh 29.40 in995.6 mb 0.00 in0.0 mm 0.00 in0.0 mm 0.02 in0.5 mm
10:10 PM 33.8°F1.0°C 25.5°F-3.6°C 62% 6.0 mph S9.7 kmh S 11.4 mph18.3 kmh 29.40 in995.6 mb 0.00 in0.0 mm 0.00 in0.0 mm 0.02 in0.5 mm
10:15 PM 33.6°F0.9°C 25.6°F-3.6°C 63% 5.4 mph S8.7 kmh S 9.8 mph15.8 kmh 29.41 in995.9 mb 0.00 in0.0 mm 0.00 in0.0 mm 0.02 in0.5 mm
10:20 PM 33.6°F0.9°C 25.6°F-3.6°C 63% 6.0 mph S9.7 kmh S 9.8 mph15.8 kmh 29.41 in995.9 mb 0.00 in0.0 mm 0.00 in0.0 mm 0.02 in0.5 mm
10:25 PM 33.6°F0.9°C 25.8°F-3.4°C 64% 5.4 mph S8.7 kmh S 9.2 mph14.8 kmh 29.41 in995.9 mb 0.00 in0.0 mm 0.00 in0.0 mm 0.02 in0.5 mm
10:30 PM 33.6°F0.9°C 25.8°F-3.4°C 64% 6.0 mph SW9.7 kmh SW 7.6 mph12.2 kmh 29.41 in995.9 mb 0.00 in0.0 mm 0.00 in0.0 mm 0.02 in0.5 mm
10:35 PM 33.6°F0.9°C 25.8°F-3.4°C 64% 6.9 mph SW11.1 kmh SW 9.8 mph15.8 kmh 29.41 in995.9 mb 0.00 in0.0 mm 0.00 in0.0 mm 0.02 in0.5 mm
10:40 PM 33.6°F0.9°C 25.8°F-3.4°C 64% 4.5 mph SW7.2 kmh SW 7.6 mph12.2 kmh 29.41 in995.9 mb 0.00 in0.0 mm 0.00 in0.0 mm 0.02 in0.5 mm
10:45 PM 33.6°F0.9°C 25.8°F-3.4°C 64% 3.8 mph SW6.1 kmh SW 5.4 mph8.7 kmh 29.42 in996.3 mb 0.00 in0.0 mm 0.00 in0.0 mm 0.02 in0.5 mm
10:50 PM 33.4°F0.8°C 25.7°F-3.5°C 64% 3.8 mph SW6.1 kmh SW 6.0 mph9.7 kmh 29.42 in996.3 mb 0.00 in0.0 mm 0.00 in0.0 mm 0.02 in0.5 mm
10:55 PM 33.4°F0.8°C 25.7°F-3.5°C 64% 5.4 mph S8.7 kmh S 8.3 mph13.4 kmh 29.42 in996.3 mb 0.00 in0.0 mm 0.00 in0.0 mm 0.02 in0.5 mm
11:00 PM 33.4°F0.8°C 25.7°F-3.5°C 64% 4.5 mph S7.2 kmh S 9.2 mph14.8 kmh 29.42 in996.3 mb 0.00 in0.0 mm 0.00 in0.0 mm 0.02 in0.5 mm
11:05 PM 33.3°F0.7°C 25.8°F-3.4°C 65% 6.9 mph SE11.1 kmh SE 9.2 mph14.8 kmh 29.42 in996.3 mb 0.00 in0.0 mm 0.00 in0.0 mm 0.02 in0.5 mm
11:10 PM 33.4°F0.8°C 25.9°F-3.4°C 65% 6.0 mph S9.7 kmh S 8.3 mph13.4 kmh 29.42 in996.3 mb 0.00 in0.0 mm 0.00 in0.0 mm 0.02 in0.5 mm
11:15 PM 33.4°F0.8°C 25.9°F-3.4°C 65% 6.0 mph S9.7 kmh S 12.1 mph19.5 kmh 29.43 in996.6 mb 0.00 in0.0 mm 0.00 in0.0 mm 0.02 in0.5 mm
11:20 PM 33.4°F0.8°C 25.9°F-3.4°C 65% 8.3 mph S13.4 kmh S 11.4 mph18.3 kmh 29.43 in996.6 mb 0.00 in0.0 mm 0.00 in0.0 mm 0.02 in0.5 mm
11:25 PM 33.4°F0.8°C 25.9°F-3.4°C 65% 5.4 mph S8.7 kmh S 8.3 mph13.4 kmh 29.43 in996.6 mb 0.00 in0.0 mm 0.00 in0.0 mm 0.02 in0.5 mm
11:30 PM 33.6°F0.9°C 26.1°F-3.3°C 65% 6.9 mph S11.1 kmh S 9.8 mph15.8 kmh 29.43 in996.6 mb 0.00 in0.0 mm 0.00 in0.0 mm 0.02 in0.5 mm
11:35 PM 33.6°F0.9°C 26.1°F-3.3°C 65% 9.8 mph SW15.8 kmh SW 13.0 mph20.9 kmh 29.43 in996.6 mb 0.00 in0.0 mm 0.00 in0.0 mm 0.02 in0.5 mm
11:40 PM 33.6°F0.9°C 26.1°F-3.3°C 65% 4.5 mph S7.2 kmh S 6.9 mph11.1 kmh 29.44 in997.0 mb 0.00 in0.0 mm 0.00 in0.0 mm 0.02 in0.5 mm
11:45 PM 33.6°F0.9°C 26.1°F-3.3°C 65% 6.0 mph N9.7 kmh N 10.7 mph17.2 kmh 29.44 in997.0 mb 0.00 in0.0 mm 0.00 in0.0 mm 0.02 in0.5 mm
11:50 PM 33.6°F0.9°C 26.1°F-3.3°C 65% 7.6 mph SW12.2 kmh SW 9.2 mph14.8 kmh 29.44 in997.0 mb 0.00 in0.0 mm 0.00 in0.0 mm 0.02 in0.5 mm
11:55 PM 33.6°F0.9°C 26.1°F-3.3°C 65% 6.0 mph SW9.7 kmh SW 8.3 mph13.4 kmh 29.44 in997.0 mb 0.00 in0.0 mm 0.00 in0.0 mm 0.02 in0.5 mm